Another Hard Day at the Office Weather Stats

 
 
 

High monthly outside Temperature, 12.2 , C
Low monthly outside Temperature, -0.2 , C
High yearly outside Temperature, 32.2 , C
Low yearly outside Temperature, -0.2 , C

Low monthly barometer, 992.1 , mb
High monthly barometer, 1031.7 , mb
Low yearly barometer, 976.8 , mb
High yearly barometer 1035.7 , mb

High wind speed, 25.0 , mph
Time of High wind speed, 8:11 , mph
High monthly wind speed, 54.0 , mph
High yearly wind speed, 64.0 , mph

 

 




3125
                    Temp     Hi    Low   Out    Dew  Wind  Wind   Wind    Hi    Hi   Wind   Heat    THW                Rain    Heat    Cool    In     In    In     In     In   In Air  Wind  Wind    ISS   Arc.
  Date    Time     Out   Temp   Temp   Hum    Pt. Speed   Dir    Run Speed   Dir  Chill  Index  Index   Bar    Rain  Rate    D-D     D-D    Temp   Hum    Dew   Heat    EMC Density  Samp   Tx   Recept  Int.
---------------------------------------------------------------------------------------------------------------------------------------------------------------------------------------------------------------
20/12/14   0:05    5.7    5.7    5.7    86    3.5   4.0   WNW   0.33   6.0   WNW    4.3    5.6    4.3  1024.4  0.00   0.0   0.044   0.000   28.4    39   13.1   28.2   7.39 1.1664    115    1    100.0    5 
20/12/14   0:10    5.6    5.7    5.6    86    3.5   5.0   WNW   0.42   7.0   WNW    3.8    5.5    3.7  1024.4  0.00   0.0   0.044   0.000   28.4    39   13.1   28.2   7.39 1.1666    112    1     98.2    5 
20/12/14   0:15    5.6    5.6    5.6    87    3.6   5.0   WNW   0.42   9.0     W    3.8    5.5    3.7  1024.3  0.00   0.0   0.044   0.000   28.3    39   13.0   28.1   7.39 1.1669    117    1    100.0    5 
20/12/14   0:20    5.6    5.6    5.6    87    3.6   5.0   WNW   0.42   9.0   WNW    3.8    5.5    3.7  1024.4  0.00   0.0   0.044   0.000   28.3    39   13.0   28.1   7.39 1.1670    117    1    100.0    5 
20/12/14   0:25    5.6    5.6    5.6    87    3.6   4.0   WNW   0.33   7.0   WNW    4.3    5.6    4.2  1024.4  0.00   0.0   0.044   0.000   28.3    39   13.0   28.0   7.39 1.1672    117    1    100.0    5 
20/12/14   0:30    5.6    5.6    5.6    87    3.6   4.0     W   0.33   8.0     W    4.3    5.6    4.2  1024.4  0.00   0.0   0.044   0.000   28.2    39   13.0   27.9   7.39 1.1675    116    1    100.0    5 
20/12/14   0:35    5.7    5.7    5.6    88    3.9   6.0     W   0.50   9.0     W    3.6    5.7    3.6  1024.4  0.00   0.0   0.044   0.000   28.2    39   12.9   27.8   7.40 1.1678    116    1    100.0    5 
20/12/14   0:40    5.8    5.8    5.8    87    3.8   5.0   WNW   0.42   8.0     W    4.1    5.7    4.0  1024.5  0.00   0.0   0.044   0.000   28.1    38   12.5   27.7   7.25 1.1686    117    1    100.0    5 
20/12/14   0:45    5.8    5.8    5.8    88    4.0   6.0   WNW   0.50   9.0   WNW    3.7    5.8    3.7  1024.3  0.00   0.0   0.043   0.000   28.1    38   12.5   27.7   7.25 1.1684    117    1    100.0    5 
20/12/14   0:50    5.8    5.8    5.8    87    3.8   5.0   WNW   0.42   8.0     W    4.1    5.8    4.1  1024.3  0.00   0.0   0.043   0.000   28.1    38   12.4   27.6   7.25 1.1687    116    1    100.0    5 
20/12/14   0:55    5.8    5.8    5.8    87    3.8   4.0   WNW   0.33   7.0     W    4.5    5.7    4.4  1024.3  0.00   0.0   0.044   0.000   28.0    38   12.4   27.6   7.25 1.1689    117    1    100.0    5 
20/12/14   1:00    5.7    5.8    5.7    87    3.7   3.0    NW   0.25   5.0   WNW    5.0    5.7    4.9  1024.2  0.00   0.0   0.044   0.000   28.0    38   12.4   27.6   7.25 1.1688    117    1    100.0    5 
20/12/14   1:05    5.7    5.7    5.7    87    3.7   4.0   WNW   0.33   7.0   WNW    4.3    5.6    4.3  1024.1  0.00   0.0   0.044   0.000   27.9    38   12.3   27.4   7.25 1.1690    117    1    100.0    5 
20/12/14   1:10    5.6    5.7    5.6    88    3.8   5.0   WNW   0.42   8.0     W    3.8    5.6    3.8  1024.1  0.00   0.0   0.044   0.000   27.9    38   12.3   27.4   7.25 1.1692    115    1    100.0    5 
20/12/14   1:15    5.9    5.9    5.6    89    4.3   7.0     W   0.58  11.0     W    3.6    5.9    3.6  1024.1  0.00   0.0   0.043   0.000   27.8    38   12.2   27.3   7.25 1.1695    117    1    100.0    5 
20/12/14   1:20    6.4    6.4    5.9    89    4.8   8.0     W   0.67  13.0     W    3.8    6.4    3.8  1024.1  0.00   0.0   0.041   0.000   27.8    38   12.2   27.3   7.25 1.1698    116    1    100.0    5 
20/12/14   1:25    6.8    6.8    6.4    88    5.0   8.0     W   0.67  14.0     W    4.3    6.8    4.3  1024.1  0.00   0.0   0.040   0.000   27.7    38   12.1   27.2   7.25 1.1701    116    1    100.0    5 
20/12/14   1:30    7.1    7.1    6.8    88    5.2   9.0     W   0.75  16.0   WNW    4.2    7.1    4.2  1024.2  0.00   0.0   0.039   0.000   27.7    38   12.1   27.2   7.25 1.1701    118    1    100.0    5 
20/12/14   1:35    7.2    7.2    7.1    87    5.1   8.0     W   0.67  16.0   WNW    4.7    7.2    4.7  1024.1  0.00   0.0   0.039   0.000   27.7    38   12.1   27.1   7.25 1.1704    117    1    100.0    5 
20/12/14   1:40    7.2    7.2    7.2    87    5.1   6.0     W   0.50  10.0   WNW    5.3    7.2    5.3  1024.3  0.00   0.0   0.039   0.000   27.6    38   12.0   27.1   7.25 1.1708    117    1    100.0    5 
20/12/14   1:45    7.1    7.2    7.1    86    4.9   5.0     W   0.42  10.0     W    5.6    7.1    5.6  1024.4  0.00   0.0   0.039   0.000   27.6    38   12.0   27.0   7.25 1.1712    114    1    100.0    5 
20/12/14   1:50    7.0    7.1    7.0    86    4.8   5.0     W   0.42  10.0     W    5.5    6.9    5.4  1024.5  0.00   0.0   0.039   0.000   27.5    38   11.9   26.9   7.25 1.1715    116    1    100.0    5 
20/12/14   1:55    6.9    7.0    6.9    86    4.8   6.0     W   0.50  10.0     W    5.1    6.9    5.0  1024.4  0.00   0.0   0.040   0.000   27.5    38   11.9   26.9   7.25 1.1714    116    1    100.0    5 
20/12/14   2:00    6.9    7.0    6.9    86    4.8   6.0     W   0.50   9.0     W    5.1    6.9    5.0  1024.4  0.00   0.0   0.040   0.000   27.4    38   11.9   26.8   7.25 1.1717    117    1    100.0    5 
20/12/14   2:05    6.9    6.9    6.9    86    4.8   6.0     W   0.50   9.0   WNW    5.1    6.9    5.0  1024.4  0.00   0.0   0.040   0.000   27.4    38   11.8   26.8   7.25 1.1720    115    1    100.0    5 
20/12/14   2:10    6.9    6.9    6.9    86    4.7   6.0   WNW   0.50   8.0     W    5.0    6.8    4.9  1024.5  0.00   0.0   0.040   0.000   27.4    38   11.8   26.8   7.25 1.1721    117    1    100.0    5 
20/12/14   2:15    6.8    6.9    6.8    86    4.7   5.0   WNW   0.42   9.0   WNW    5.3    6.8    5.2  1024.6  0.00   0.0   0.040   0.000   27.3    38   11.8   26.7   7.25 1.1724    117    1    100.0    5 
20/12/14   2:20    6.8    6.8    6.8    86    4.6   5.0   WNW   0.42   7.0   WNW    5.2    6.7    5.2  1024.6  0.00   0.0   0.040   0.000   27.3    38   11.7   26.6   7.25 1.1727    117    1    100.0    5 
20/12/14   2:25    6.7    6.8    6.7    86    4.5   4.0   WNW   0.33   6.0   WNW    5.5    6.6    5.4  1024.6  0.00   0.0   0.041   0.000   27.2    38   11.7   26.6   7.25 1.1730    117    1    100.0    5 
20/12/14   2:30    6.6    6.7    6.6    86    4.4   3.0   WNW   0.25   7.0     W    5.9    6.5    5.9  1024.6  0.00   0.0   0.041   0.000   27.2    38   11.6   26.5   7.25 1.1733    116    1    100.0    5 
20/12/14   2:35    6.5    6.6    6.5    87    4.5   5.0     W   0.42   8.0     W    4.9    6.5    4.9  1024.6  0.00   0.0   0.041   0.000   27.2    38   11.6   26.5   7.25 1.1733    117    1    100.0    5 
20/12/14   2:40    6.5    6.5    6.5    87    4.5   5.0     W   0.42   9.0   WNW    4.9    6.5    4.9  1024.7  0.00   0.0   0.041   0.000   27.1    38   11.6   26.4   7.25 1.1736    117    1    100.0    5 
20/12/14   2:45    6.5    6.5    6.4    87    4.5   5.0   WNW   0.42   8.0     W    4.9    6.5    4.9  1024.7  0.00   0.0   0.041   0.000   27.1    38   11.5   26.4   7.25 1.1739    117    1    100.0    5 
20/12/14   2:50    6.4    6.4    6.4    87    4.4   5.0   WNW   0.42   8.0     W    4.8    6.4    4.8  1024.6  0.00   0.0   0.041   0.000   27.0    38   11.5   26.3   7.25 1.1741    116    1    100.0    5 
20/12/14   2:55    6.3    6.4    6.3    87    4.3   6.0   WNW   0.50  10.0     W    4.3    6.3    4.3  1024.6  0.00   0.0   0.042   0.000   27.0    38   11.5   26.3   7.25 1.1741    116    1    100.0    5 
20/12/14   3:00    6.4    6.4    6.3    87    4.4   6.0     W   0.50  12.0   WSW    4.4    6.4    4.4  1024.5  0.00   0.0   0.041   0.000   26.9    38   11.4   26.3   7.25 1.1742    117    1    100.0    5 
20/12/14   3:05    6.5    6.5    6.4    87    4.5   7.0     W   0.58  11.0     W    4.2    6.5    4.2  1024.6  0.00   0.0   0.041   0.000   26.9    38   11.4   26.2   7.25 1.1746    117    1    100.0    5 
20/12/14   3:10    6.6    6.6    6.5    87    4.5   6.0   WNW   0.50   8.0   WNW    4.6    6.6    4.6  1024.7  0.00   0.0   0.041   0.000   26.8    38   11.3   26.2   7.25 1.1750    117    1    100.0    5 
20/12/14   3:15    6.6    6.6    6.6    87    4.5   5.0   WNW   0.42   9.0   WNW    5.0    6.6    5.0  1024.6  0.00   0.0   0.041   0.000   26.8    38   11.3   26.2   7.25 1.1749    116    1    100.0    5 
20/12/14   3:20    6.6    6.6    6.6    87    4.6   6.0     W   0.50  12.0   WNW    4.7    6.6    4.7  1024.6  0.00   0.0   0.041   0.000   26.8    38   11.3   26.1   7.25 1.1752    117    1    100.0    5 
20/12/14   3:25    6.8    6.8    6.7    87    4.8   7.0     W   0.58  11.0   WNW    4.7    6.8    4.7  1024.5  0.00   0.0   0.040   0.000   26.7    38   11.2   26.1   7.25 1.1753    117    1    100.0    5 
20/12/14   3:30    7.1    7.1    6.8    87    5.1   7.0     W   0.58  13.0   WNW    5.0    7.1    5.0  1024.6  0.00   0.0   0.039   0.000   26.7    38   11.2   26.0   7.25 1.1757    117    1    100.0    5 
20/12/14   3:35    7.4    7.4    7.1    87    5.4   7.0     W   0.58  13.0   WNW    5.3    7.4    5.3  1024.6  0.00   0.0   0.038   0.000   26.7    38   11.2   26.0   7.25 1.1757    118    1    100.0    5 
20/12/14   3:40    7.5    7.5    7.4    86    5.3   5.0   WNW   0.42  11.0     W    6.1    7.5    6.1  1024.5  0.00   0.0   0.038   0.000   26.6    38   11.1   25.9   7.25 1.1758    116    1    100.0    5 
20/12/14   3:45    7.6    7.6    7.5    86    5.4   6.0     W   0.50  10.0   WNW    5.8    7.6    5.8  1024.5  0.00   0.0   0.037   0.000   26.6    38   11.1   25.9   7.25 1.1762    116    1    100.0    5 
20/12/14   3:50    7.7    7.7    7.6    86    5.5   7.0     W   0.58  12.0   WNW    5.7    7.7    5.7  1024.5  0.00   0.0   0.037   0.000   26.6    38   11.1   25.9   7.25 1.1761    117    1    100.0    5 
20/12/14   3:55    7.7    7.7    7.7    86    5.5   5.0   WNW   0.42   9.0   WNW    6.3    7.7    6.3  1024.5  0.00   0.0   0.037   0.000   26.5    38   11.0   25.9   7.26 1.1764    116    1    100.0    5 
20/12/14   4:00    7.6    7.7    7.6    85    5.2   5.0   WNW   0.42  10.0     W    6.2    7.6    6.2  1024.5  0.00   0.0   0.037   0.000   26.4    38   11.0   25.8   7.26 1.1767    115    1    100.0    5 
20/12/14   4:05    7.6    7.6    7.6    85    5.2   6.0     W   0.50  10.0     W    5.8    7.6    5.8  1024.5  0.00   0.0   0.037   0.000   26.4    38   10.9   25.8   7.26 1.1769    117    1    100.0    5 
20/12/14   4:10    7.5    7.6    7.5    85    5.1   6.0   WNW   0.50   9.0     W    5.7    7.5    5.7  1024.5  0.00   0.0   0.038   0.000   26.4    38   10.9   25.8   7.26 1.1769    117    1    100.0    5 
20/12/14   4:15    7.5    7.5    7.5    86    5.3   6.0     W   0.50  11.0   WNW    5.7    7.5    5.7  1024.5  0.00   0.0   0.038   0.000   26.3    38   10.9   25.7   7.26 1.1772    117    1    100.0    5 
20/12/14   4:20    7.5    7.6    7.5    85    5.1   7.0   WNW   0.58  12.0     W    5.4    7.5    5.4  1024.4  0.00   0.0   0.038   0.000   26.3    38   10.8   25.7   7.26 1.1774    117    1    100.0    5 
20/12/14   4:25    7.4    7.5    7.4    86    5.3   7.0     W   0.58  13.0   WNW    5.4    7.4    5.4  1024.3  0.00   0.0   0.038   0.000   26.3    38   10.8   25.7   7.26 1.1772    117    1    100.0    5 
20/12/14   4:30    7.6    7.6    7.4    86    5.4  10.0     W   0.83  15.0   WNW    4.6    7.6    4.6  1024.4  0.00   0.0   0.037   0.000   26.2    38   10.8   25.7   7.27 1.1776    117    1    100.0    5 
20/12/14   4:35    7.7    7.7    7.6    85    5.4   8.0     W   0.67  15.0     W    5.4    7.7    5.4  1024.4  0.00   0.0   0.037   0.000   26.2    38   10.7   25.6   7.27 1.1778    117    1    100.0    5 
20/12/14   4:40    7.8    7.8    7.8    85    5.4   7.0     W   0.58  11.0     W    5.8    7.8    5.8  1024.4  0.00   0.0   0.037   0.000   26.2    38   10.7   25.6   7.27 1.1778    118    1    100.0    5 
20/12/14   4:45    7.9    7.9    7.8    84    5.4   9.0     W   0.75  15.0     W    5.2    7.9    5.2  1024.4  0.00   0.0   0.036   0.000   26.1    38   10.7   25.6   7.27 1.1781    115    1    100.0    5 
20/12/14   4:50    7.9    7.9    7.9    83    5.2   8.0     W   0.67  16.0   WNW    5.6    7.9    5.6  1024.5  0.00   0.0   0.036   0.000   26.1    38   10.7   25.6   7.27 1.1783    117    1    100.0    5 
20/12/14   4:55    8.1    8.1    7.9    83    5.3   8.0     W   0.67  14.0     W    5.7    8.0    5.7  1024.5  0.00   0.0   0.036   0.000   26.1    38   10.6   25.5   7.27 1.1785    116    1    100.0    5 
20/12/14   5:00    8.2    8.2    8.1    81    5.1  10.0     W   0.83  18.0     W    5.2    8.1    5.1  1024.4  0.00   0.0   0.035   0.000   26.0    38   10.6   25.4   7.27 1.1787    116    1    100.0    5 
20/12/14   5:05    8.3    8.3    8.2    81    5.2  10.0     W   0.83  15.0     W    5.4    8.2    5.3  1024.5  0.00   0.0   0.035   0.000   26.0    38   10.6   25.4   7.27 1.1788    116    1    100.0    5 
20/12/14   5:10    8.3    8.3    8.3    80    5.1  10.0     W   0.83  15.0     W    5.4    8.2    5.3  1024.5  0.00   0.0   0.035   0.000   25.9    38   10.5   25.4   7.28 1.1790    117    1    100.0    5 
20/12/14   5:15    8.4    8.4    8.3    79    5.0  10.0     W   0.83  16.0     W    5.5    8.3    5.4  1024.5  0.00   0.0   0.035   0.000   25.9    38   10.5   25.3   7.28 1.1794    116    1    100.0    5 
20/12/14   5:20    8.4    8.4    8.4    78    4.8  11.0     W   0.92  17.0   WSW    5.3    8.3    5.2  1024.6  0.00   0.0   0.034   0.000   25.9    38   10.5   25.3   7.28 1.1795    117    1    100.0    5 
20/12/14   5:25    8.4    8.4    8.4    78    4.8  10.0     W   0.83  16.0   WSW    5.6    8.3    5.4  1024.7  0.00   0.0   0.034   0.000   25.8    38   10.4   25.3   7.28 1.1798    116    1    100.0    5 
20/12/14   5:30    8.4    8.4    8.4    78    4.8  10.0     W   0.83  18.0     W    5.6    8.3    5.4  1024.8  0.00   0.0   0.034   0.000   25.8    38   10.4   25.2   7.28 1.1802    117    1    100.0    5 
20/12/14   5:35    8.4    8.4    8.4    78    4.8  10.0     W   0.83  19.0     W    5.6    8.3    5.4  1024.7  0.00   0.0   0.034   0.000   25.7    38   10.3   25.2   7.28 1.1803    117    1    100.0    5 
20/12/14   5:40    8.4    8.4    8.4    78    4.8  12.0     W   1.00  20.0     W    5.0    8.3    4.9  1024.6  0.00   0.0   0.035   0.000   25.7    38   10.3   25.1   7.29 1.1806    117    1    100.0    5 
20/12/14   5:45    8.3    8.4    8.3    78    4.7  12.0     W   1.00  19.0     W    4.9    8.2    4.8  1024.7  0.00   0.0   0.035   0.000   25.7    38   10.3   25.1   7.29 1.1806    118    1    100.0    5 
20/12/14   5:50    8.3    8.3    8.3    78    4.7  10.0     W   0.83  18.0     W    5.4    8.2    5.3  1024.8  0.00   0.0   0.035   0.000   25.6    38   10.2   25.0   7.29 1.1811    117    1    100.0    5 
20/12/14   5:55    8.3    8.3    8.3    78    4.7   9.0     W   0.75  15.0     W    5.7    8.2    5.6  1024.9  0.00   0.0   0.035   0.000   25.6    38   10.2   24.9   7.29 1.1815    117    1    100.0    5 
20/12/14   6:00    8.2    8.3    8.2    78    4.6   7.0     W   0.58  12.0   WNW    6.3    8.1    6.2  1024.9  0.00   0.0   0.035   0.000   25.6    38   10.2   24.9   7.29 1.1815    117    1    100.0    5 
20/12/14   6:05    8.2    8.2    8.2    79    4.7   6.0     W   0.50  12.0     W    6.5    8.1    6.4  1024.9  0.00   0.0   0.035   0.000   25.5    38   10.1   24.9   7.29 1.1817    115    1    100.0    5 
20/12/14   6:10    8.1    8.2    8.1    79    4.7   9.0     W   0.75  16.0   WSW    5.5    8.0    5.4  1024.8  0.00   0.0   0.035   0.000   25.4    38   10.1   24.9   7.29 1.1819    117    1    100.0    5 
20/12/14   6:15    8.2    8.2    8.1    79    4.7  13.0     W   1.08  20.0     W    4.5    8.1    4.4  1024.8  0.00   0.0   0.035   0.000   25.4    38   10.0   24.8   7.30 1.1821    117    1    100.0    5 
20/12/14   6:20    8.2    8.2    8.2    79    4.7  11.0     W   0.92  18.0     W    5.0    8.1    4.9  1024.8  0.00   0.0   0.035   0.000   25.4    38   10.0   24.8   7.30 1.1821    117    1    100.0    5 
20/12/14   6:25    8.1    8.2    8.1    79    4.7  10.0     W   0.83  16.0     W    5.2    8.0    5.1  1024.8  0.00   0.0   0.035   0.000   25.3    38   10.0   24.8   7.30 1.1824    116    1    100.0    5 
20/12/14   6:30    8.1    8.1    8.1    80    4.9   9.0     W   0.75  14.0   WSW    5.5    8.0    5.4  1024.9  0.00   0.0   0.035   0.000   25.3    38    9.9   24.7   7.30 1.1828    117    1    100.0    5 
20/12/14   6:35    8.1    8.1    8.1    80    4.8   8.0     W   0.67  12.0     W    5.7    7.9    5.6  1025.1  0.00   0.0   0.036   0.000   25.3    38    9.9   24.7   7.30 1.1830    117    1    100.0    5 
20/12/14   6:40    8.1    8.1    8.1    80    4.9   8.0     W   0.67  13.0   WNW    5.8    8.0    5.7  1025.0  0.00   0.0   0.035   0.000   25.2    38    9.9   24.7   7.30 1.1831    117    1    100.0    5 
20/12/14   6:45    8.1    8.1    8.1    80    4.9   8.0     W   0.67  14.0   WNW    5.8    8.0    5.7  1025.1  0.00   0.0   0.035   0.000   25.2    38    9.9   24.7   7.30 1.1833    117    1    100.0    5 
20/12/14   6:50    8.1    8.1    8.1    80    4.9  10.0     W   0.83  15.0   WNW    5.2    8.0    5.1  1024.9  0.00   0.0   0.035   0.000   25.2    38    9.8   24.7   7.30 1.1833    116    1    100.0    5 
20/12/14   6:55    8.1    8.1    8.1    80    4.9  11.0     W   0.92  18.0   WSW    4.9    8.0    4.8  1025.0  0.00   0.0   0.035   0.000   25.1    38    9.8   24.6   7.31 1.1837    117    1    100.0    5 
20/12/14   7:00    8.1    8.1    8.1    80    4.8   5.0     W   0.42  10.0     W    6.7    7.9    6.6  1024.8  0.00   0.0   0.036   0.000   25.1    38    9.7   24.6   7.31 1.1837    116    1    100.0    5 
20/12/14   7:05    8.0    8.1    8.0    80    4.8   7.0     W   0.58  13.0     W    6.1    7.9    5.9  1024.8  0.00   0.0   0.036   0.000   25.1    38    9.7   24.6   7.31 1.1837    117    1    100.0    5 
20/12/14   7:10    7.9    8.0    7.9    80    4.7   9.0     W   0.75  17.0     W    5.3    7.8    5.2  1025.0  0.00   0.0   0.036   0.000   25.1    38    9.7   24.6   7.31 1.1839    117    1    100.0    5 
20/12/14   7:15    7.9    7.9    7.9    80    4.7   9.0     W   0.75  15.0     W    5.3    7.8    5.2  1024.9  0.00   0.0   0.036   0.000   25.0    38    9.7   24.5   7.31 1.1841    117    1    100.0    5 
20/12/14   7:20    7.9    7.9    7.9    80    4.7  10.0     W   0.83  15.0     W    5.0    7.8    4.9  1024.8  0.00   0.0   0.036   0.000   25.0    38    9.7   24.5   7.31 1.1840    116    1    100.0    5 
20/12/14   7:25    7.9    7.9    7.9    80    4.6  10.0     W   0.83  17.0     W    4.9    7.8    4.8  1025.1  0.00   0.0   0.036   0.000   25.0    38    9.7   24.5   7.31 1.1843    117    1    100.0    5 
20/12/14   7:30    7.9    7.9    7.9    80    4.6  11.0     W   0.92  15.0     W    4.7    7.8    4.6  1025.0  0.00   0.0   0.036   0.000   25.0    39   10.1   24.6   7.51 1.1839    114    1    100.0    5 
20/12/14   7:35    7.8    7.9    7.8    80    4.6   9.0     W   0.75  14.0     W    5.2    7.7    5.1  1025.0  0.00   0.0   0.036   0.000   25.0    39   10.1   24.6   7.51 1.1838    117    1    100.0    5 
20/12/14   7:40    7.7    7.8    7.7    81    4.7   8.0     W   0.67  14.0     W    5.4    7.6    5.3  1025.0  0.00   0.0   0.037   0.000   25.0    39   10.1   24.6   7.51 1.1838    117    1    100.0    5 
20/12/14   7:45    7.7    7.7    7.7    81    4.6   9.0     W   0.75  16.0     W    5.0    7.6    4.9  1025.1  0.00   0.0   0.037   0.000   25.0    39   10.1   24.6   7.51 1.1840    117    1    100.0    5 
20/12/14   7:50    7.7    7.7    7.7    81    4.6  11.0     W   0.92  16.0   WNW    4.4    7.6    4.3  1025.4  0.00   0.0   0.037   0.000   25.0    39   10.1   24.6   7.51 1.1843    117    1    100.0    5 
20/12/14   7:55    7.7    7.7    7.7    81    4.6   8.0     W   0.67  15.0   WSW    5.3    7.6    5.2  1025.3  0.00   0.0   0.037   0.000   25.0    39   10.1   24.6   7.51 1.1842    118    1    100.0    5 
20/12/14   8:00    7.6    7.7    7.6    81    4.6   9.0     W   0.75  14.0     W    4.9    7.5    4.8  1025.1  0.00   0.0   0.037   0.000   25.0    39   10.1   24.6   7.51 1.1840    115    1    100.0    5 
20/12/14   8:05    7.6    7.6    7.6    82    4.7   9.0     W   0.75  15.0     W    4.9    7.6    4.8  1025.0  0.00   0.0   0.037   0.000   25.0    40   10.5   24.6   7.61 1.1834    117    1    100.0    5 
20/12/14   8:10    7.6    7.6    7.6    82    4.7  10.0     W   0.83  17.0   WSW    4.6    7.6    4.6  1025.1  0.00   0.0   0.037   0.000   25.1    40   10.5   24.6   7.61 1.1833    117    1    100.0    5 
20/12/14   8:15    7.7    7.7    7.6    81    4.6   9.0     W   0.75  16.0   WSW    5.0    7.6    4.9  1025.3  0.00   0.0   0.037   0.000   25.1    40   10.5   24.6   7.61 1.1836    115    1    100.0    5 
20/12/14   8:20    7.7    7.7    7.7    81    4.7  10.0     W   0.83  17.0   WNW    4.7    7.6    4.6  1025.4  0.00   0.0   0.037   0.000   25.1    40   10.6   24.7   7.61 1.1834    115    1    100.0    5 
20/12/14   8:25    7.7    7.7    7.7    82    4.8   9.0     W   0.75  15.0     W    5.1    7.7    5.0  1025.4  0.00   0.0   0.037   0.000   25.2    40   10.6   24.7   7.60 1.1831    117    1    100.0    5 
20/12/14   8:30    7.7    7.7    7.7    82    4.8   8.0     W   0.67  14.0     W    5.4    7.7    5.3  1025.4  0.00   0.0   0.037   0.000   25.2    41   11.0   24.8   7.75 1.1825    117    1    100.0    5 
20/12/14   8:35    7.8    7.8    7.7    82    4.9   7.0     W   0.58  13.0   WNW    5.8    7.7    5.7  1025.6  0.00   0.0   0.037   0.000   25.3    41   11.1   24.8   7.75 1.1825    117    1    100.0    5 
20/12/14   8:40    7.8    7.8    7.8    82    4.9   6.0   WNW   0.50  12.0     W    6.1    7.7    6.0  1025.8  0.00   0.0   0.037   0.000   25.3    41   11.1   24.9   7.75 1.1824    117    1    100.0    5 
20/12/14   8:45    7.8    7.8    7.8    82    4.9   7.0     W   0.58  13.0   WNW    5.8    7.7    5.7  1025.8  0.00   0.0   0.037   0.000   25.4    41   11.2   24.9   7.75 1.1822    117    1    100.0    5 
20/12/14   8:50    7.8    7.8    7.8    82    4.9   7.0     W   0.58  12.0   WNW    5.8    7.8    5.8  1026.0  0.00   0.0   0.036   0.000   25.5    41   11.3   25.1   7.75 1.1818    116    1    100.0    5 
20/12/14   8:55    7.8    7.8    7.8    82    4.9   7.0     W   0.58  12.0     W    5.8    7.7    5.7  1025.9  0.00   0.0   0.037   0.000   25.6    41   11.3   25.1   7.75 1.1815    118    1    100.0    5 
20/12/14   9:00    7.8    7.8    7.8    83    5.1   8.0     W   0.67  13.0     W    5.4    7.7    5.4  1025.9  0.00   0.0   0.037   0.000   25.6    41   11.4   25.2   7.75 1.1812    117    1    100.0    5 
20/12/14   9:05    7.8    7.8    7.8    83    5.1   9.0     W   0.75  13.0     W    5.1    7.7    5.1  1026.0  0.00   0.0   0.037   0.000   25.7    41   11.4   25.2   7.75 1.1810    117    1    100.0    5 
20/12/14   9:10    7.8    7.8    7.8    83    5.1   7.0     W   0.58  11.0   WNW    5.8    7.7    5.7  1026.1  0.00   0.0   0.037   0.000   25.8    41   11.5   25.3   7.75 1.1807    117    1    100.0    5 
20/12/14   9:15    7.8    7.8    7.8    83    5.1   8.0     W   0.67  13.0   WNW    5.5    7.8    5.4  1026.2  0.00   0.0   0.036   0.000   25.8    41   11.6   25.4   7.75 1.1804    117    1    100.0    5 
20/12/14   9:20    7.8    7.8    7.8    83    5.1   8.0     W   0.67  14.0     W    5.5    7.8    5.4  1026.3  0.00   0.0   0.036   0.000   25.9    41   11.6   25.5   7.75 1.1803    115    1    100.0    5 
20/12/14   9:25    7.9    7.9    7.8    83    5.2   9.0     W   0.75  15.0     W    5.2    7.8    5.2  1026.2  0.00   0.0   0.036   0.000   26.0    41   11.7   25.6   7.75 1.1796    116    1    100.0    5 
20/12/14   9:30    7.9    7.9    7.9    83    5.2  10.0     W   0.83  15.0   WSW    5.0    7.9    4.9  1026.1  0.00   0.0   0.036   0.000   26.1    41   11.8   25.7   7.75 1.1793    116    1    100.0    5 
20/12/14   9:35    8.0    8.0    7.9    83    5.3   7.0     W   0.58  11.0   WNW    6.1    7.9    6.0  1026.1  0.00   0.0   0.036   0.000   26.1    41   11.8   25.7   7.75 1.1790    117    1    100.0    5 
20/12/14   9:40    8.0    8.0    8.0    83    5.3   7.0     W   0.58  11.0     W    6.1    7.9    6.0  1026.2  0.00   0.0   0.036   0.000   26.2    41   11.9   25.8   7.75 1.1788    117    1    100.0    5 
20/12/14   9:45    8.0    8.0    8.0    83    5.3   7.0     W   0.58  10.0     W    6.1    7.9    6.0  1026.2  0.00   0.0   0.036   0.000   26.2    41   11.9   25.8   7.75 1.1785    115    1    100.0    5 
20/12/14   9:50    8.0    8.0    8.0    83    5.3   7.0     W   0.58  13.0     W    6.1    7.9    6.0  1026.2  0.00   0.0   0.036   0.000   26.3    41   12.0   25.9   7.75 1.1781    117    1    100.0    5 
20/12/14   9:55    8.1    8.1    8.0    83    5.3   8.0     W   0.67  12.0   WSW    5.7    8.0    5.7  1026.4  0.00   0.0   0.036   0.000   26.4    41   12.1   25.9   7.75 1.1779    117    1    100.0    5 
20/12/14  10:00    8.1    8.1    8.1    82    5.2   8.0     W   0.67  15.0   WSW    5.7    8.0    5.7  1026.4  0.00   0.0   0.036   0.000   26.4    41   12.1   26.0   7.75 1.1776    118    1    100.0    5 
20/12/14  10:05    8.2    8.2    8.1    82    5.3   9.0     W   0.75  14.0     W    5.6    8.1    5.5  1026.4  0.00   0.0   0.035   0.000   26.6    41   12.2   26.1   7.75 1.1772    117    1    100.0    5 
20/12/14  10:10    8.3    8.3    8.2    82    5.4   9.0     W   0.75  16.0   WNW    5.7    8.2    5.6  1026.5  0.00   0.0   0.035   0.000   26.6    41   12.3   26.1   7.75 1.1770    117    1    100.0    5 
20/12/14  10:15    8.4    8.4    8.3    81    5.4   8.0     W   0.67  13.0     W    6.2    8.4    6.1  1026.4  0.00   0.0   0.034   0.000   26.7    41   12.4   26.2   7.75 1.1763    115    1    100.0    5 
20/12/14  10:20    8.6    8.6    8.4    80    5.4   8.0     W   0.67  14.0   WNW    6.4    8.5    6.3  1026.5  0.00   0.0   0.034   0.000   26.8    41   12.4   26.3   7.75 1.1761    117    1    100.0    5 
20/12/14  10:25    8.7    8.7    8.6    80    5.5  10.0   WNW   0.83  17.0     W    5.9    8.7    5.8  1026.6  0.00   0.0   0.033   0.000   26.8    41   12.5   26.3   7.74 1.1760    117    1    100.0    5 
20/12/14  10:30    8.8    8.8    8.7    79    5.3  11.0     W   0.92  17.0     W    5.7    8.7    5.6  1026.6  0.00   0.0   0.033   0.000   26.9    41   12.6   26.4   7.74 1.1754    117    1    100.0    5 
20/12/14  10:35    8.8    8.8    8.8    78    5.2  11.0     W   0.92  19.0   WNW    5.8    8.7    5.7  1026.6  0.00   0.0   0.033   0.000   27.0    41   12.6   26.5   7.74 1.1752    117    1    100.0    5 
20/12/14  10:40    8.9    8.9    8.8    78    5.3  11.0     W   0.92  19.0     W    5.9    8.8    5.8  1026.7  0.00   0.0   0.033   0.000   27.1    41   12.7   26.6   7.73 1.1747    117    1    100.0    5 
20/12/14  10:45    9.1    9.1    8.9    78    5.4   9.0     W   0.75  14.0   WNW    6.6    8.9    6.5  1026.6  0.00   0.0   0.032   0.000   27.2    41   12.8   26.7   7.73 1.1744    117    1    100.0    5 
20/12/14  10:50    9.2    9.2    9.1    77    5.4  11.0     W   0.92  17.0     W    6.2    9.1    6.1  1026.7  0.00   0.0   0.032   0.000   27.3    41   12.9   26.8   7.73 1.1739    116    1    100.0    5 
20/12/14  10:55    9.3    9.3    9.2    77    5.5  12.0     W   1.00  22.0     W    6.0    9.2    5.9  1026.6  0.00   0.0   0.031   0.000   27.4    41   13.0   26.9   7.72 1.1733    117    1    100.0    5 
20/12/14  11:00    9.4    9.4    9.3    77    5.6  10.0   WNW   0.83  18.0   WNW    6.7    9.3    6.6  1026.7  0.00   0.0   0.031   0.000   27.4    41   13.0   27.0   7.72 1.1731    117    1    100.0    5 
20/12/14  11:05    9.5    9.5    9.4    76    5.5  10.0     W   0.83  19.0     W    6.8    9.3    6.6  1026.6  0.00   0.0   0.031   0.000   27.6    41   13.1   27.2   7.72 1.1725    118    1    100.0    5 
20/12/14  11:10    9.6    9.6    9.5    76    5.5  12.0     W   1.00  20.0   WNW    6.3    9.4    6.2  1026.6  0.00   0.0   0.030   0.000   27.6    41   13.2   27.2   7.72 1.1721    116    1    100.0    5 
20/12/14  11:15    9.6    9.6    9.6    76    5.6  11.0     W   0.92  19.0   WNW    6.7    9.5    6.6  1026.5  0.00   0.0   0.030   0.000   27.7    41   13.3   27.4   7.71 1.1715    117    1    100.0    5 
20/12/14  11:20    9.7    9.7    9.6    75    5.5  11.0     W   0.92  19.0   WNW    6.8    9.6    6.7  1026.6  0.00   0.0   0.030   0.000   27.8    41   13.3   27.4   7.71 1.1714    117    1    100.0    5 
20/12/14  11:25    9.6    9.7    9.6    75    5.4  11.0     W   0.92  19.0   WNW    6.7    9.4    6.5  1026.6  0.00   0.0   0.030   0.000   27.8    40   13.0   27.4   7.55 1.1715    116    1    100.0    5 
20/12/14  11:30    9.6    9.6    9.6    75    5.3   9.0     W   0.75  16.0     W    7.2    9.4    7.0  1026.5  0.00   0.0   0.030   0.000   27.9    40   13.0   27.6   7.55 1.1712    117    1    100.0    5 
20/12/14  11:35    9.6    9.6    9.6    74    5.1  13.0     W   1.08  20.0   WNW    6.1    9.4    5.9  1026.5  0.00   0.0   0.030   0.000   27.9    40   13.1   27.6   7.55 1.1708    117    1    100.0    5 
20/12/14  11:40    9.7    9.7    9.6    74    5.3  10.0     W   0.83  17.0   WNW    7.1    9.6    6.9  1026.4  0.00   0.0   0.030   0.000   28.0    40   13.1   27.7   7.55 1.1705    117    1    100.0    5 
20/12/14  11:45    9.9    9.9    9.7    73    5.3  11.0     W   0.92  18.0     W    7.0    9.7    6.8  1026.4  0.00   0.0   0.029   0.000   28.0    39   12.8   27.6   7.40 1.1709    117    1    100.0    5 
20/12/14  11:50    9.9   10.0    9.9    73    5.3  10.0   WNW   0.83  18.0     W    7.3    9.8    7.2  1026.4  0.00   0.0   0.029   0.000   28.1    39   12.8   27.7   7.40 1.1706    117    1    100.0    5 
20/12/14  11:55   10.0   10.0    9.9    73    5.4  11.0   WNW   0.92  18.0   WNW    7.1    9.8    6.9  1026.5  0.00   0.0   0.029   0.000   28.1    39   12.8   27.7   7.40 1.1707    117    1    100.0    5 
20/12/14  12:00   10.1   10.1   10.0    73    5.5  11.0   WNW   0.92  17.0     W    7.2    9.9    7.1  1026.5  0.00   0.0   0.029   0.000   28.1    39   12.9   27.8   7.40 1.1705    117    1    100.0    5 
20/12/14  12:05   10.1   10.1   10.1    75    5.9  11.0     W   0.92  20.0   WNW    7.2   10.0    7.1  1026.5  0.00   0.0   0.029   0.000   28.2    39   12.9   27.8   7.40 1.1702    116    1    100.0    5 
20/12/14  12:10   10.2   10.2   10.1    74    5.7  11.0   WNW   0.92  21.0   WNW    7.3   10.0    7.1  1026.5  0.00   0.0   0.028   0.000   28.2    40   13.3   27.9   7.55 1.1697    117    1    100.0    5 
20/12/14  12:15   10.1   10.2   10.1    74    5.7  11.0   WNW   0.92  18.0   WNW    7.2    9.9    7.1  1026.4  0.00   0.0   0.029   0.000   28.2    40   13.3   28.0   7.55 1.1694    117    1    100.0    5 
20/12/14  12:20   10.1   10.2   10.1    73    5.5  10.0     W   0.83  20.0   WNW    7.5    9.9    7.3  1026.3  0.00   0.0   0.029   0.000   28.2    40   13.3   28.0   7.55 1.1693    116    1    100.0    5 
20/12/14  12:25   10.0   10.1   10.0    73    5.4  11.0   WNW   0.92  17.0     W    7.1    9.8    6.9  1026.2  0.00   0.0   0.029   0.000   28.2    40   13.3   28.0   7.55 1.1692    117    1    100.0    5 
20/12/14  12:30    9.9   10.0    9.9    72    5.1  11.0     W   0.92  19.0     W    7.1    9.8    6.9  1026.3  0.00   0.0   0.029   0.000   28.3    40   13.4   28.1   7.55 1.1690    116    1    100.0    5 
20/12/14  12:35   10.0   10.0    9.9    72    5.2  10.0   WNW   0.83  16.0   WNW    7.4    9.8    7.2  1026.4  0.00   0.0   0.029   0.000   28.3    39   13.0   28.0   7.39 1.1695    117    1    100.0    5 
20/12/14  12:40   10.3   10.3   10.0    71    5.2  10.0   WNW   0.83  17.0     W    7.7   10.1    7.5  1026.2  0.00   0.0   0.028   0.000   28.3    39   13.0   28.0   7.39 1.1693    117    1    100.0    5 
20/12/14  12:45   10.4   10.4   10.3    70    5.2  11.0   WNW   0.92  17.0     W    7.6   10.2    7.3  1026.3  0.00   0.0   0.027   0.000   28.3    39   13.0   28.1   7.39 1.1692    117    1    100.0    5 
20/12/14  12:50   10.4   10.4   10.4    69    5.0  12.0   WNW   1.00  19.0   WNW    7.3   10.2    7.1  1026.3  0.00   0.0   0.027   0.000   28.3    39   13.0   28.1   7.39 1.1692    117    1    100.0    5 
20/12/14  12:55   10.6   10.6   10.4    69    5.2  10.0   WNW   0.83  17.0   WNW    8.1   10.3    7.8  1026.4  0.00   0.0   0.027   0.000   28.3    39   13.0   28.1   7.39 1.1693    116    1    100.0    5 
20/12/14  13:00   10.7   10.8   10.7    68    5.1  12.0   WNW   1.00  21.0   WNW    7.7   10.4    7.3  1026.4  0.00   0.0   0.026   0.000   28.4    39   13.1   28.2   7.39 1.1690    117    1    100.0    5 
20/12/14  13:05   10.8   10.8   10.7    67    4.9  12.0   WNW   1.00  21.0   WNW    7.7   10.4    7.3  1026.4  0.00   0.0   0.026   0.000   28.4    38   12.7   28.1   7.25 1.1695    116    1    100.0    5 
20/12/14  13:10   10.8   10.8   10.8    67    4.9  13.0     W   1.08  24.0   WNW    7.5   10.4    7.1  1026.3  0.00   0.0   0.026   0.000   28.4    38   12.7   28.1   7.25 1.1694    118    1    100.0    5 
20/12/14  13:15   10.7   10.8   10.7    67    4.8  13.0     W   1.08  20.0     W    7.4   10.4    7.1  1026.3  0.00   0.0   0.026   0.000   28.4    38   12.7   28.1   7.25 1.1693    117    1    100.0    5 
20/12/14  13:20   10.8   10.8   10.7    67    4.9  12.0   WNW   1.00  17.0   WNW    7.7   10.4    7.3  1026.3  0.00   0.0   0.026   0.000   28.4    38   12.7   28.1   7.25 1.1694    117    1    100.0    5 
20/12/14  13:25   10.7   10.8   10.7    67    4.8  14.0     W   1.17  22.0     W    7.2   10.3    6.8  1026.4  0.00   0.0   0.027   0.000   28.4    38   12.7   28.1   7.25 1.1694    117    1    100.0    5 
20/12/14  13:30   10.6   10.7   10.6    67    4.7  14.0   WNW   1.17  19.0     W    7.1   10.3    6.8  1026.4  0.00   0.0   0.027   0.000   28.4    38   12.7   28.1   7.25 1.1694    117    1    100.0    5 
20/12/14  13:35   10.8   10.8   10.6    68    5.2   9.0   WNW   0.75  16.0   WNW    8.7   10.5    8.4  1026.5  0.00   0.0   0.026   0.000   28.4    38   12.7   28.1   7.25 1.1695    117    1    100.0    5 
20/12/14  13:40   10.8   10.8   10.8    66    4.7  15.0   WNW   1.25  25.0   WNW    7.1   10.4    6.7  1026.6  0.00   0.0   0.026   0.000   28.4    38   12.8   28.2   7.25 1.1694    117    1    100.0    5 
20/12/14  13:45   10.8   10.8   10.8    66    4.7  12.0   WNW   1.00  21.0   WNW    7.8   10.4    7.4  1026.6  0.00   0.0   0.026   0.000   28.4    38   12.8   28.2   7.25 1.1694    117    1    100.0    5 
20/12/14  13:50   10.9   10.9   10.8    67    5.0  11.0   WNW   0.92  20.0   WNW    8.1   10.5    7.7  1026.6  0.00   0.0   0.026   0.000   28.4    38   12.8   28.2   7.25 1.1694    117    1    100.0    5 
20/12/14  13:55   11.0   11.0   10.9    66    4.9  10.0   WNW   0.83  19.0     W    8.6   10.6    8.2  1026.5  0.00   0.0   0.025   0.000   28.4    38   12.8   28.2   7.25 1.1693    116    1    100.0    5 
20/12/14  14:00   10.8   11.0   10.8    66    4.7  14.0   WNW   1.17  20.0     W    7.4   10.4    7.0  1026.5  0.00   0.0   0.026   0.000   28.4    37   12.3   28.1   7.09 1.1697    116    1    100.0    5 
20/12/14  14:05   10.7   10.8   10.7    66    4.6  12.0   WNW   1.00  20.0   WNW    7.7   10.3    7.3  1026.5  0.00   0.0   0.026   0.000   28.4    37   12.3   28.1   7.09 1.1698    116    1    100.0    5 
20/12/14  14:10   10.8   10.8   10.7    67    4.9  12.0     W   1.00  20.0   WNW    7.7   10.4    7.3  1026.5  0.00   0.0   0.026   0.000   28.4    37   12.3   28.1   7.09 1.1697    117    1    100.0    5 
20/12/14  14:15   10.8   10.8   10.7    67    4.9  10.0   WNW   0.83  19.0   WNW    8.3   10.4    7.9  1026.6  0.00   0.0   0.026   0.000   28.4    37   12.3   28.1   7.09 1.1698    118    1    100.0    5 
20/12/14  14:20   10.6   10.8   10.6    67    4.7  14.0   WNW   1.17  21.0     W    7.1   10.3    6.8  1026.7  0.00   0.0   0.027   0.000   28.4    37   12.3   27.9   7.09 1.1702    117    1    100.0    5 
20/12/14  14:25   10.6   10.6   10.6    68    4.9  11.0   WNW   0.92  22.0     W    7.7   10.2    7.4  1026.7  0.00   0.0   0.027   0.000   28.4    37   12.3   27.9   7.09 1.1702    117    1    100.0    5 
20/12/14  14:30   10.6   10.7   10.6    67    4.7  11.0   WNW   0.92  21.0     W    7.7   10.2    7.4  1026.7  0.00   0.0   0.027   0.000   28.4    37   12.3   28.1   7.09 1.1699    117    1    100.0    5 
20/12/14  14:35   10.6   10.7   10.6    68    4.9   9.0   WNW   0.75  15.0     W    8.4   10.3    8.1  1026.8  0.00   0.0   0.027   0.000   28.4    37   12.3   27.9   7.09 1.1704    117    1    100.0    5 
20/12/14  14:40   10.6   10.7   10.6    67    4.7  13.0   WNW   1.08  20.0     W    7.2   10.2    6.9  1026.9  0.00   0.0   0.027   0.000   28.4    39   13.1   28.2   7.39 1.1694    117    1    100.0    5 
20/12/14  14:45   10.4   10.6   10.4    68    4.8  11.0   WNW   0.92  17.0   WNW    7.6   10.1    7.3  1027.0  0.00   0.0   0.027   0.000   28.4    40   13.5   28.3   7.55 1.1690    117    1    100.0    5 
20/12/14  14:50   10.4   10.4   10.4    68    4.7  11.0   WNW   0.92  21.0    NW    7.6   10.1    7.2  1027.1  0.00   0.0   0.028   0.000   28.4    40   13.5   28.3   7.55 1.1691    117    1    100.0    5 
20/12/14  14:55   10.3   10.4   10.3    68    4.7  10.0   WNW   0.83  19.0   WNW    7.8   10.1    7.5  1027.1  0.00   0.0   0.028   0.000   28.4    41   13.9   28.4   7.69 1.1686    117    1    100.0    5 
20/12/14  15:00   10.3   10.3   10.3    68    4.6  10.0   WNW   0.83  17.0     W    7.7   10.0    7.4  1027.2  0.00   0.0   0.028   0.000   28.4    40   13.5   28.3   7.55 1.1692    117    1    100.0    5 
20/12/14  15:05   10.3   10.3   10.3    69    4.8   6.0   WNW   0.50  12.0    NW    9.1   10.0    8.8  1027.1  0.00   0.0   0.028   0.000   28.4    40   13.5   28.3   7.55 1.1691    116    1    100.0    5 
20/12/14  15:10   10.2   10.3   10.2    69    4.7   8.0     W   0.67  16.0    NW    8.3    9.9    8.0  1027.1  0.00   0.0   0.028   0.000   28.4    40   13.5   28.3   7.55 1.1691    117    1    100.0    5 
20/12/14  15:15   10.1   10.2   10.1    70    4.9   8.0   WNW   0.67  14.0   WNW    8.2    9.9    7.9  1027.3  0.00   0.0   0.029   0.000   28.4    40   13.5   28.3   7.55 1.1693    117    1    100.0    5 
20/12/14  15:20    9.9   10.1    9.9    70    4.7  10.0     W   0.83  17.0   WNW    7.3    9.7    7.1  1027.3  0.00   0.0   0.029   0.000   28.4    40   13.5   28.3   7.55 1.1694    118    1    100.0    5 
20/12/14  15:25    9.8    9.9    9.8    71    4.8   7.0     W   0.58  12.0     W    8.2    9.6    7.9  1027.5  0.00   0.0   0.030   0.000   28.4    40   13.5   28.3   7.55 1.1696    116    1    100.0    5 
20/12/14  15:30    9.7    9.8    9.7    71    4.7   7.0     W   0.58  13.0   WNW    8.1    9.5    7.9  1027.7  0.00   0.0   0.030   0.000   28.4    40   13.5   28.3   7.55 1.1698    117    1    100.0    5 
20/12/14  15:35    9.6    9.7    9.6    71    4.6   7.0     W   0.58  12.0   WNW    8.0    9.4    7.8  1027.6  0.00   0.0   0.030   0.000   28.4    40   13.5   28.3   7.55 1.1697    116    1    100.0    5 
20/12/14  15:40    9.4    9.6    9.4    72    4.6   9.0   WNW   0.75  13.0   WNW    7.1    9.2    6.8  1027.7  0.00   0.0   0.031   0.000   28.4    40   13.5   28.3   7.55 1.1701    115    1    100.0    5 
20/12/14  15:45    9.3    9.5    9.3    72    4.5   9.0   WNW   0.75  15.0   WNW    6.9    9.1    6.7  1027.7  0.00   0.0   0.031   0.000   28.4    40   13.5   28.3   7.55 1.1698    117    1    100.0    5 
20/12/14  15:50    9.2    9.3    9.2    72    4.4  10.0   WNW   0.83  19.0   WNW    6.4    8.9    6.2  1027.7  0.00   0.0   0.032   0.000   28.4    40   13.5   28.3   7.55 1.1701    116    1    100.0    5 
20/12/14  15:55    9.1    9.2    9.1    73    4.5   8.0   WNW   0.67  12.0   WNW    6.9    8.8    6.7  1027.7  0.00   0.0   0.032   0.000   28.4    40   13.5   28.3   7.55 1.1701    117    1    100.0    5 
20/12/14  16:00    8.9    9.1    8.9    73    4.4   9.0   WNW   0.75  17.0   WNW    6.4    8.7    6.2  1027.8  0.00   0.0   0.033   0.000   28.4    41   13.9   28.3   7.69 1.1697    117    1    100.0    5 
20/12/14  16:05    8.9    8.9    8.9    73    4.3   7.0   WNW   0.58  12.0   WNW    7.1    8.7    6.9  1028.0  0.00   0.0   0.033   0.000   28.4    41   13.9   28.3   7.69 1.1699    117    1    100.0    5 
20/12/14  16:10    8.8    8.9    8.8    74    4.4   7.0   WNW   0.58  11.0   WSW    7.0    8.6    6.8  1028.0  0.00   0.0   0.033   0.000   28.4    41   13.9   28.3   7.69 1.1700    117    1    100.0    5 
20/12/14  16:15    8.8    8.8    8.7    74    4.4   6.0   WNW   0.50  10.0   WSW    7.3    8.6    7.1  1028.2  0.00   0.0   0.033   0.000   28.4    40   13.5   28.3   7.55 1.1706    117    1    100.0    5 
20/12/14  16:20    8.7    8.7    8.7    74    4.3   5.0   WNW   0.42   9.0     W    7.4    8.5    7.3  1028.1  0.00   0.0   0.034   0.000   28.4    40   13.5   28.3   7.55 1.1706    116    1    100.0    5 
20/12/14  16:25    8.6    8.7    8.6    74    4.2   7.0   WNW   0.58  10.0   WNW    6.8    8.4    6.6  1028.2  0.00   0.0   0.034   0.000   28.4    40   13.5   28.3   7.55 1.1706    117    1    100.0    5 
20/12/14  16:30    8.6    8.6    8.6    74    4.2   8.0   WNW   0.67  13.0   WNW    6.3    8.4    6.2  1028.3  0.00   0.0   0.034   0.000   28.4    40   13.5   28.3   7.55 1.1705    117    1    100.0    5 
20/12/14  16:35    8.6    8.6    8.6    74    4.2   8.0   WNW   0.67  12.0     W    6.3    8.4    6.2  1028.4  0.00   0.0   0.034   0.000   28.4    40   13.5   28.3   7.55 1.1706    117    1    100.0    5 
20/12/14  16:40    8.6    8.6    8.6    74    4.2   7.0   WNW   0.58  12.0   WNW    6.7    8.4    6.6  1028.4  0.00   0.0   0.034   0.000   28.4    40   13.5   28.3   7.55 1.1706    117    1    100.0    5 
20/12/14  16:45    8.5    8.6    8.5    75    4.3   6.0   WNW   0.50  10.0   WNW    6.9    8.3    6.8  1028.5  0.00   0.0   0.034   0.000   28.5    41   14.0   28.5   7.68 1.1700    117    1    100.0    5 
20/12/14  16:50    8.4    8.5    8.4    75    4.3   6.0   WNW   0.50  10.0   WNW    6.8    8.3    6.7  1028.6  0.00   0.0   0.034   0.000   28.6    42   14.4   28.7   7.85 1.1694    116    1    100.0    5 
20/12/14  16:55    8.3    8.4    8.3    75    4.2   5.0   WNW   0.42  10.0   WNW    7.1    8.2    6.9  1028.7  0.00   0.0   0.035   0.000   28.6    43   14.8   28.8   7.98 1.1691    116    1    100.0    5 
20/12/14  17:00    8.3    8.3    8.3    76    4.3   4.0   WNW   0.33   8.0     W    7.4    8.1    7.2  1028.9  0.00   0.0   0.035   0.000   28.6    42   14.4   28.8   7.85 1.1694    116    1    100.0    5 
20/12/14  17:05    8.2    8.3    8.2    76    4.2   4.0   WNW   0.33   8.0   WNW    7.3    8.1    7.2  1029.0  0.00   0.0   0.035   0.000   28.7    42   14.5   28.9   7.85 1.1693    115    1    100.0    5 
20/12/14  17:10    8.2    8.2    8.2    77    4.4   5.0   WNW   0.42   8.0   WNW    6.8    8.0    6.7  1028.9  0.00   0.0   0.035   0.000   28.7    41   14.2   28.9   7.68 1.1693    116    1    100.0    5 
20/12/14  17:15    8.1    8.2    8.1    77    4.3   5.0   WNW   0.42  10.0     W    6.7    7.9    6.6  1028.9  0.00   0.0   0.036   0.000   28.7    41   14.2   28.9   7.68 1.1694    117    1    100.0    5 
20/12/14  17:20    8.0    8.1    8.0    78    4.4   5.0   WNW   0.42   9.0   WNW    6.7    7.8    6.5  1028.9  0.00   0.0   0.036   0.000   28.7    40   13.8   28.8   7.55 1.1698    116    1    100.0    5 
20/12/14  17:25    7.9    8.0    7.9    78    4.3   5.0   WNW   0.42   9.0   WNW    6.6    7.8    6.4  1028.9  0.00   0.0   0.036   0.000   28.8    40   13.8   28.9   7.55 1.1696    117    1    100.0    5 
20/12/14  17:30    7.9    7.9    7.9    78    4.3   5.0   WNW   0.42   9.0     W    6.5    7.7    6.3  1029.1  0.00   0.0   0.036   0.000   28.8    40   13.8   28.9   7.55 1.1697    115    1    100.0    5 
20/12/14  17:35    7.8    7.9    7.8    78    4.2   4.0     W   0.33   7.0     W    6.8    7.7    6.7  1029.2  0.00   0.0   0.036   0.000   28.8    40   13.9   28.9   7.55 1.1696    117    1    100.0    5 
20/12/14  17:40    7.8    7.8    7.8    78    4.2   4.0     W   0.33   6.0     W    6.8    7.6    6.6  1029.2  0.00   0.0   0.037   0.000   28.9    40   13.9   29.1   7.55 1.1694    117    1    100.0    5 
20/12/14  17:45    7.7    7.8    7.7    79    4.3   4.0     W   0.33   6.0     W    6.7    7.6    6.6  1029.3  0.00   0.0   0.037   0.000   28.9    40   13.9   29.1   7.55 1.1694    117    1    100.0    5 
20/12/14  17:50    7.7    7.7    7.7    79    4.3   4.0     W   0.33   6.0     W    6.7    7.6    6.6  1029.3  0.00   0.0   0.037   0.000   28.9    39   13.6   29.0   7.37 1.1697    116    1    100.0    5 
20/12/14  17:55    7.7    7.7    7.7    79    4.3   4.0     W   0.33   6.0     W    6.7    7.6    6.6  1029.3  0.00   0.0   0.037   0.000   28.9    39   13.6   29.0   7.37 1.1697    117    1    100.0    5 
20/12/14  18:00    7.6    7.7    7.6    79    4.2   3.0     W   0.25   5.0   WNW    7.1    7.5    7.0  1029.4  0.00   0.0   0.037   0.000   29.0    39   13.6   29.1   7.37 1.1695    117    1    100.0    5 
20/12/14  18:05    7.6    7.6    7.6    80    4.3   4.0     W   0.33   7.0     W    6.6    7.4    6.4  1029.5  0.00   0.0   0.037   0.000   29.0    39   13.6   29.1   7.37 1.1696    117    1    100.0    5 
20/12/14  18:10    7.6    7.6    7.5    80    4.3   5.0     W   0.42   7.0     W    6.1    7.4    6.0  1029.6  0.00   0.0   0.037   0.000   29.0    39   13.6   29.1   7.37 1.1697    116    1    100.0    5 
20/12/14  18:15    7.5    7.5    7.4    80    4.3   5.0     W   0.42   8.0     W    6.1    7.4    5.9  1029.5  0.00   0.0   0.038   0.000   29.0    39   13.6   29.1   7.37 1.1696    116    1    100.0    5 
20/12/14  18:20    7.4    7.4    7.4    80    4.2   5.0     W   0.42   8.0     W    6.0    7.3    5.9  1029.7  0.00   0.0   0.038   0.000   29.0    39   13.6   29.1   7.37 1.1698    117    1    100.0    5 
20/12/14  18:25    7.4    7.4    7.4    81    4.4   6.0     W   0.50   9.0     W    5.7    7.3    5.6  1029.8  0.00   0.0   0.038   0.000   29.1    39   13.7   29.1   7.36 1.1696    117    1    100.0    5 
20/12/14  18:30    7.4    7.4    7.4    81    4.4   6.0     W   0.50   9.0     W    5.7    7.3    5.6  1029.8  0.00   0.0   0.038   0.000   29.1    38   13.3   29.0   7.25 1.1702    116    1    100.0    5 
20/12/14  18:35    7.4    7.4    7.4    81    4.4   6.0     W   0.50  10.0     W    5.7    7.3    5.6  1029.9  0.00   0.0   0.038   0.000   29.1    38   13.3   29.0   7.25 1.1702    117    1    100.0    5 
20/12/14  18:40    7.4    7.4    7.4    81    4.4   6.0     W   0.50  11.0     W    5.7    7.3    5.6  1029.9  0.00   0.0   0.038   0.000   29.1    38   13.3   29.0   7.25 1.1703    116    1    100.0    5 
20/12/14  18:45    7.4    7.4    7.4    81    4.4   6.0     W   0.50  11.0     W    5.7    7.3    5.6  1030.0  0.00   0.0   0.038   0.000   29.1    38   13.3   29.0   7.25 1.1704    117    1    100.0    5 
20/12/14  18:50    7.4    7.4    7.4    81    4.4   5.0     W   0.42   9.0   WNW    6.0    7.3    5.9  1030.0  0.00   0.0   0.038   0.000   29.1    38   13.3   29.0   7.25 1.1703    116    1    100.0    5 
20/12/14  18:55    7.4    7.4    7.4    81    4.3   5.0     W   0.42   9.0   WSW    5.9    7.3    5.8  1030.0  0.00   0.0   0.038   0.000   29.1    38   13.3   29.0   7.25 1.1704    116    1    100.0    5 
20/12/14  19:00    7.3    7.4    7.3    81    4.3   5.0   WNW   0.42   7.0     W    5.8    7.2    5.7  1029.9  0.00   0.0   0.038   0.000   29.1    38   13.3   29.0   7.25 1.1703    117    1    100.0    5 
20/12/14  19:05    7.3    7.3    7.3    81    4.2   4.0   WNW   0.33   7.0     W    6.2    7.2    6.1  1029.9  0.00   0.0   0.038   0.000   29.1    38   13.3   29.0   7.25 1.1700    116    1    100.0    5 
20/12/14  19:10    7.2    7.3    7.2    81    4.2   5.0     W   0.42   7.0     W    5.7    7.1    5.6  1030.0  0.00   0.0   0.039   0.000   29.1    38   13.3   29.0   7.25 1.1701    117    1    100.0    5 
20/12/14  19:15    7.1    7.2    7.1    82    4.2   5.0     W   0.42   9.0     W    5.6    7.0    5.5  1030.0  0.00   0.0   0.039   0.000   29.1    38   13.3   29.0   7.25 1.1701    117    1    100.0    5 
20/12/14  19:20    7.1    7.1    7.1    82    4.2   6.0     W   0.50   8.0     W    5.2    6.9    5.1  1030.1  0.00   0.0   0.039   0.000   29.2    38   13.4   29.1   7.25 1.1699    117    1    100.0    5 
20/12/14  19:25    6.9    7.1    6.9    82    4.1   5.0     W   0.42   8.0     W    5.4    6.8    5.3  1030.1  0.00   0.0   0.040   0.000   29.2    38   13.4   29.1   7.25 1.1699    116    1    100.0    5 
20/12/14  19:30    6.9    6.9    6.9    82    4.0   5.0     W   0.42   9.0     W    5.3    6.8    5.2  1030.1  0.00   0.0   0.040   0.000   29.2    38   13.4   29.1   7.25 1.1697    116    1    100.0    5 
20/12/14  19:35    6.9    6.9    6.9    83    4.2   4.0     W   0.33   8.0     W    5.8    6.8    5.7  1030.3  0.00   0.0   0.040   0.000   29.2    38   13.4   29.1   7.25 1.1699    118    1    100.0    5 
20/12/14  19:40    6.9    6.9    6.9    83    4.2   4.0     W   0.33   7.0     W    5.8    6.8    5.7  1030.3  0.00   0.0   0.040   0.000   29.2    38   13.4   29.1   7.25 1.1699    116    1    100.0    5 
20/12/14  19:45    6.9    6.9    6.9    83    4.2   4.0     W   0.33   7.0     W    5.8    6.8    5.7  1030.3  0.00   0.0   0.040   0.000   29.2    38   13.4   29.1   7.25 1.1699    116    1    100.0    5 
20/12/14  19:50    6.9    6.9    6.9    83    4.2   5.0     W   0.42   8.0     W    5.3    6.8    5.3  1030.3  0.00   0.0   0.040   0.000   29.2    37   13.0   29.0   7.06 1.1704    116    1    100.0    5 
20/12/14  19:55    6.9    6.9    6.9    83    4.3   5.0     W   0.42   8.0   WSW    5.4    6.9    5.4  1030.2  0.00   0.0   0.040   0.000   29.3    37   13.1   29.1   7.06 1.1700    115    1    100.0    5 
20/12/14  20:00    6.9    6.9    6.9    83    4.3   5.0     W   0.42  12.0   WSW    5.4    6.9    5.4  1030.2  0.00   0.0   0.040   0.000   29.3    37   13.1   29.1   7.06 1.1700    117    1    100.0    5 
20/12/14  20:05    6.9    6.9    6.9    83    4.3   4.0     W   0.33   8.0   WSW    5.8    6.9    5.8  1030.3  0.00   0.0   0.040   0.000   29.3    37   13.1   29.1   7.06 1.1701    117    1    100.0    5 
20/12/14  20:10    6.9    6.9    6.9    83    4.2   3.0   WNW   0.25   6.0     W    6.3    6.8    6.2  1030.4  0.00   0.0   0.040   0.000   29.2    37   13.0   29.0   7.06 1.1705    116    1    100.0    5 
20/12/14  20:15    6.8    6.9    6.8    83    4.1   2.0   WNW   0.17   5.0   WNW    6.8    6.8    6.8  1030.5  0.00   0.0   0.040   0.000   29.2    37   13.0   29.0   7.06 1.1706    116    1    100.0    5 
20/12/14  20:20    6.8    6.8    6.8    82    4.0   1.0   WNW   0.08   3.0   WNW    6.8    6.7    6.7  1030.4  0.00   0.0   0.040   0.000   29.2    37   13.0   29.0   7.06 1.1705    116    1    100.0    5 
20/12/14  20:25    6.7    6.8    6.7    82    3.9   1.0   WNW   0.08   3.0   WNW    6.7    6.6    6.6  1030.5  0.00   0.0   0.040   0.000   29.2    37   13.0   29.0   7.06 1.1706    116    1    100.0    5 
20/12/14  20:30    6.7    6.7    6.7    83    4.0   2.0   WNW   0.17   4.0   WNW    6.7    6.6    6.6  1030.4  0.00   0.0   0.041   0.000   29.2    37   13.0   29.0   7.06 1.1705    116    1    100.0    5 
20/12/14  20:35    6.6    6.7    6.6    83    3.9   2.0   WNW   0.17   3.0   WNW    6.6    6.5    6.5  1030.4  0.00   0.0   0.041   0.000   29.2    37   13.0   29.0   7.06 1.1705    117    1    100.0    5 
20/12/14  20:40    6.4    6.6    6.4    83    3.8   3.0   WNW   0.25   6.0     W    5.8    6.3    5.7  1030.4  0.00   0.0   0.041   0.000   29.3    37   13.1   29.1   7.06 1.1702    118    1    100.0    5 
20/12/14  20:45    6.4    6.4    6.4    84    3.9   3.0     W   0.25   6.0   WSW    5.8    6.4    5.8  1030.7  0.00   0.0   0.041   0.000   29.2    37   13.0   29.0   7.06 1.1708    117    1    100.0    5 
20/12/14  20:50    6.5    6.5    6.4    84    4.0   5.0     W   0.42   7.0     W    4.9    6.4    4.8  1030.8  0.00   0.0   0.041   0.000   29.3    37   13.1   29.1   7.06 1.1707    116    1    100.0    5 
20/12/14  20:55    6.6    6.6    6.5    84    4.0   5.0     W   0.42   9.0     W    5.0    6.5    4.9  1030.8  0.00   0.0   0.041   0.000   29.3    37   13.1   29.1   7.06 1.1706    116    1    100.0    5 
20/12/14  21:00    6.6    6.7    6.6    84    4.1   5.0     W   0.42  10.0     W    5.1    6.6    5.0  1030.7  0.00   0.0   0.041   0.000   29.3    37   13.1   29.1   7.05 1.1703    117    1    100.0    5 
20/12/14  21:05    6.6    6.7    6.6    84    4.1   5.0     W   0.42   8.0   WNW    5.1    6.6    5.0  1030.7  0.00   0.0   0.041   0.000   29.3    37   13.1   29.1   7.06 1.1706    117    1    100.0    5 
20/12/14  21:10    6.6    6.6    6.6    84    4.1   5.0   WNW   0.42   9.0     W    5.1    6.6    5.0  1030.7  0.00   0.0   0.041   0.000   29.3    37   13.1   29.1   7.05 1.1703    116    1    100.0    5 
20/12/14  21:15    6.6    6.6    6.6    84    4.0   5.0   WNW   0.42   8.0     W    5.0    6.5    4.9  1030.8  0.00   0.0   0.041   0.000   29.3    37   13.1   29.1   7.05 1.1704    117    1    100.0    5 
20/12/14  21:20    6.5    6.6    6.5    84    4.0   3.0     W   0.25   6.0     W    5.9    6.4    5.8  1030.9  0.00   0.0   0.041   0.000   29.3    37   13.1   29.1   7.05 1.1705    117    1    100.0    5 
20/12/14  21:25    6.5    6.5    6.5    85    4.2   3.0   WNW   0.25   6.0   WNW    5.9    6.4    5.8  1031.1  0.00   0.0   0.041   0.000   29.3    37   13.1   29.1   7.06 1.1710    117    1    100.0    5 
20/12/14  21:30    6.4    6.5    6.4    85    4.1   3.0   WNW   0.25   5.0   WNW    5.8    6.4    5.8  1031.0  0.00   0.0   0.041   0.000   29.3    37   13.1   29.1   7.05 1.1706    115    1    100.0    5 
20/12/14  21:35    6.4    6.4    6.4    85    4.0   3.0   WNW   0.25   5.0   WNW    5.7    6.3    5.7  1031.0  0.00   0.0   0.041   0.000   29.3    37   13.1   29.1   7.06 1.1708    117    1    100.0    5 
20/12/14  21:40    6.3    6.4    6.3    85    3.9   3.0   WNW   0.25   5.0   WNW    5.6    6.2    5.6  1031.0  0.00   0.0   0.042   0.000   29.3    37   13.1   29.1   7.05 1.1706    117    1    100.0    5 
20/12/14  21:45    6.2    6.3    6.2    85    3.9   4.0   WNW   0.33   6.0   WNW    5.0    6.2    4.9  1030.9  0.00   0.0   0.042   0.000   29.3    37   13.1   29.1   7.06 1.1708    117    1    100.0    5 
20/12/14  21:50    6.2    6.2    6.2    86    4.0   4.0     W   0.33   7.0     W    4.9    6.1    4.9  1030.9  0.00   0.0   0.042   0.000   29.3    37   13.1   29.1   7.06 1.1708    117    1    100.0    5 
20/12/14  21:55    6.1    6.2    6.1    86    3.9   3.0   WNW   0.25   6.0     W    5.4    6.1    5.4  1030.9  0.00   0.0   0.042   0.000   29.2    37   13.0   29.0   7.06 1.1710    117    1    100.0    5 
20/12/14  22:00    6.1    6.1    6.1    86    3.9   2.0   WNW   0.17   5.0   WNW    6.1    6.0    6.0  1031.0  0.00   0.0   0.043   0.000   29.2    37   13.0   29.0   7.06 1.1711    117    1    100.0    5 
20/12/14  22:05    6.0    6.1    6.0    86    3.8   1.0   WNW   0.08   4.0   WNW    6.0    5.9    5.9  1030.9  0.00   0.0   0.043   0.000   29.2    37   13.0   29.0   7.06 1.1711    117    1    100.0    5 
20/12/14  22:10    5.9    6.0    5.9    86    3.8   1.0   WNW   0.08   4.0   WNW    5.9    5.9    5.9  1031.0  0.00   0.0   0.043   0.000   29.2    37   13.0   29.0   7.06 1.1712    117    1    100.0    5 
20/12/14  22:15    5.9    5.9    5.9    86    3.7   3.0   WNW   0.25   6.0     W    5.2    5.8    5.1  1031.0  0.00   0.0   0.043   0.000   29.2    37   13.0   29.0   7.06 1.1712    116    1    100.0    5 
20/12/14  22:20    5.8    5.9    5.8    86    3.7   4.0   WNW   0.33   7.0     W    4.6    5.8    4.5  1030.9  0.00   0.0   0.043   0.000   29.2    36   12.6   28.8   6.77 1.1718    117    1    100.0    5 
20/12/14  22:25    5.8    5.8    5.8    87    3.8   3.0    NW   0.25   6.0   WNW    5.1    5.7    5.0  1031.0  0.00   0.0   0.044   0.000   29.2    36   12.6   28.8   6.77 1.1719    116    1    100.0    5 
20/12/14  22:30    5.8    5.8    5.8    87    3.8   4.0   WNW   0.33   6.0   WNW    4.5    5.7    4.4  1031.0  0.00   0.0   0.044   0.000   29.2    37   13.0   28.9   7.06 1.1715    117    1    100.0    5 
20/12/14  22:35    5.8    5.8    5.8    87    3.8   4.0    NW   0.33   6.0    NW    4.5    5.7    4.4  1031.0  0.00   0.0   0.044   0.000   29.1    37   12.9   28.9   7.06 1.1717    117    1    100.0    5 
20/12/14  22:40    5.7    5.8    5.7    87    3.7   2.0   WNW   0.17   4.0    NW    5.7    5.7    5.7  1031.1  0.00   0.0   0.044   0.000   29.1    37   12.9   28.9   7.06 1.1718    117    1    100.0    5 
20/12/14  22:45    5.7    5.7    5.7    87    3.7   3.0   WNW   0.25   5.0   WNW    4.9    5.6    4.8  1031.2  0.00   0.0   0.044   0.000   29.1    36   12.5   28.8   6.77 1.1724    117    1    100.0    5 
20/12/14  22:50    5.6    5.7    5.6    88    3.8   3.0   WNW   0.25   5.0   WNW    4.8    5.6    4.8  1031.2  0.00   0.0   0.044   0.000   29.1    36   12.5   28.8   6.77 1.1724    118    1    100.0    5 
20/12/14  22:55    5.6    5.6    5.6    88    3.7   3.0   WNW   0.25   6.0   WNW    4.8    5.5    4.7  1031.2  0.00   0.0   0.044   0.000   29.1    36   12.5   28.8   6.77 1.1724    117    1    100.0    5 
20/12/14  23:00    5.6    5.6    5.6    88    3.7   4.0   WNW   0.33   6.0     W    4.2    5.5    4.2  1031.3  0.00   0.0   0.044   0.000   29.1    36   12.5   28.8   6.78 1.1728    117    1    100.0    5 
20/12/14  23:05    5.6    5.6    5.6    88    3.7   3.0     W   0.25   6.0     W    4.8    5.5    4.7  1031.4  0.00   0.0   0.044   0.000   29.1    36   12.5   28.8   6.78 1.1729    117    1    100.0    5 
20/12/14  23:10    5.6    5.6    5.6    89    3.9   3.0   WNW   0.25   6.0   WNW    4.8    5.6    4.8  1031.3  0.00   0.0   0.044   0.000   29.1    36   12.5   28.8   6.78 1.1728    117    1    100.0    5 
20/12/14  23:15    5.6    5.6    5.6    89    3.9   3.0   WNW   0.25   6.0   WNW    4.8    5.6    4.8  1031.4  0.00   0.0   0.044   0.000   29.1    36   12.5   28.8   6.78 1.1729    117    1    100.0    5 
20/12/14  23:20    5.6    5.6    5.6    89    3.9   3.0    NW   0.25   4.0   WNW    4.8    5.6    4.8  1031.3  0.00   0.0   0.044   0.000   29.0    36   12.4   28.7   6.78 1.1731    117    1    100.0    5 
20/12/14  23:25    5.4    5.6    5.4    89    3.8   3.0   NNW   0.25   4.0   NNW    4.7    5.4    4.6  1031.4  0.00   0.0   0.045   0.000   28.9    36   12.4   28.7   6.79 1.1734    115    1    100.0    5 
20/12/14  23:30    5.4    5.4    5.4    89    3.7   2.0   NNW   0.17   4.0   NNW    5.4    5.3    5.3  1031.3  0.00   0.0   0.045   0.000   28.9    36   12.4   28.7   6.79 1.1734    116    1    100.0    5 
20/12/14  23:35    5.3    5.4    5.3    89    3.6   3.0    NW   0.25   6.0     W    4.5    5.2    4.4  1031.4  0.00   0.0   0.045   0.000   28.9    36   12.3   28.6   6.79 1.1737    115    1    100.0    5 
20/12/14  23:40    5.3    5.3    5.3    89    3.7   4.0   WNW   0.33   8.0     W    4.0    5.3    3.9  1031.4  0.00   0.0   0.045   0.000   28.9    36   12.3   28.6   6.79 1.1737    117    1    100.0    5 
20/12/14  23:45    5.5    5.5    5.3    90    4.0   6.0     W   0.50   9.0     W    3.3    5.5    3.3  1031.3  0.00   0.0   0.045   0.000   28.8    36   12.3   28.5   6.79 1.1739    115    1    100.0    5 
20/12/14  23:50    5.7    5.7    5.5    90    4.2   6.0     W   0.50  10.0     W    3.5    5.7    3.5  1031.2  0.00   0.0   0.044   0.000   28.8    36   12.2   28.4   6.80 1.1741    118    1    100.0    5 
20/12/14  23:55    5.7    5.7    5.7    90    4.2   5.0   WNW   0.42   8.0     W    4.0    5.7    4.0  1031.2  0.00   0.0   0.044   0.000   28.8    36   12.2   28.4   6.80 1.1741    115    1    100.0    5 
21/12/14  00:00    5.8    5.8    5.7    90    4.3   6.0   WNW   0.50   8.0   WNW    3.7    5.8    3.7  1031.2  0.00   0.0   0.044   0.000   28.7    36   12.2   28.3   6.80 1.1742    116    1    100.0    5 
21/12/14   0:05    5.8    5.8    5.8    90    4.3   5.0   WNW   0.42   8.0   WNW    4.1    5.8    4.1  1031.3  0.00   0.0   0.043   0.000   28.7    36   12.2   28.3   6.80 1.1744    113    1     99.1    5 
21/12/14   0:10    5.8    5.8    5.8    90    4.3   4.0   WNW   0.33   9.0   WNW    4.5    5.8    4.5  1031.3  0.00   0.0   0.044   0.000   28.7    36   12.1   28.3   6.81 1.1747    117    1    100.0    5 
21/12/14   0:15    5.7    5.8    5.7    90    4.2   5.0    NW   0.42   9.0   WNW    3.9    5.7    3.9  1031.3  0.00   0.0   0.044   0.000   28.6    36   12.1   28.2   6.81 1.1749    118    1    100.0    5 
21/12/14   0:20    5.6    5.7    5.6    90    4.0   5.0    NW   0.42   9.0   WNW    3.8    5.6    3.8  1031.3  0.00   0.0   0.044   0.000   28.6    35   11.6   28.1   6.71 1.1754    117    1    100.0    5 
21/12/14   0:25    5.6    5.6    5.5    90    4.0   5.0   WNW   0.42  10.0   WNW    3.8    5.6    3.8  1031.1  0.00   0.0   0.044   0.000   28.6    35   11.6   28.0   6.71 1.1755    116    1    100.0    5 
21/12/14   0:30    5.5    5.6    5.5    90    4.0   6.0   WNW   0.50  10.0     W    3.3    5.5    3.3  1031.2  0.00   0.0   0.045   0.000   28.6    35   11.6   28.0   6.71 1.1756    116    1    100.0    5 
21/12/14   0:35    5.6    5.6    5.5    91    4.2   7.0   WNW   0.58  12.0     W    3.1    5.6    3.1  1031.4  0.00   0.0   0.044   0.000   28.5    35   11.5   27.9   6.72 1.1760    117    1    100.0    5 
21/12/14   0:40    5.7    5.7    5.6    91    4.3   6.0   WNW   0.50  12.0   WNW    3.5    5.7    3.5  1031.4  0.00   0.0   0.044   0.000   28.4    35   11.5   27.8   6.72 1.1763    116    1    100.0    5 
21/12/14   0:45    5.7    5.7    5.7    91    4.4   6.0   WNW   0.50   9.0   WNW    3.6    5.7    3.6  1031.5  0.00   0.0   0.044   0.000   28.4    35   11.5   27.7   6.73 1.1767    116    1    100.0    5 
21/12/14   0:50    5.8    5.8    5.7    91    4.4   6.0   WNW   0.50  10.0   WNW    3.7    5.8    3.7  1031.5  0.00   0.0   0.044   0.000   28.3    35   11.4   27.7   6.73 1.1770    117    1    100.0    5 
21/12/14   0:55    5.8    5.8    5.8    91    4.4   8.0   WNW   0.67  13.0    NW    3.1    5.8    3.1  1031.5  0.00   0.0   0.044   0.000   28.3    35   11.4   27.6   6.73 1.1772    117    1    100.0    5 
21/12/14   1:00    5.8    5.8    5.8    91    4.4   8.0   WNW   0.67  11.0   WNW    3.1    5.8    3.1  1031.5  0.00   0.0   0.044   0.000   28.3    35   11.4   27.6   6.73 1.1773    114    1    100.0    5 
21/12/14   1:05    5.8    5.9    5.8    91    4.5   6.0   WNW   0.50   9.0   WNW    3.7    5.8    3.7  1031.5  0.00   0.0   0.043   0.000   28.2    35   11.3   27.6   6.74 1.1775    117    1    100.0    5 
21/12/14   1:10    5.8    5.9    5.8    91    4.5   5.0   WNW   0.42   9.0   NNW    4.1    5.8    4.1  1031.7  0.00   0.0   0.043   0.000   28.2    35   11.3   27.5   6.74 1.1780    117    1    100.0    5 
21/12/14   1:15    5.9    5.9    5.8    91    4.5   5.0   WNW   0.42   9.0     W    4.2    5.9    4.2  1031.7  0.00   0.0   0.043   0.000   28.2    35   11.3   27.5   6.74 1.1780    117    1    100.0    5 
21/12/14   1:20    5.9    5.9    5.9    91    4.6   5.0   WNW   0.42   8.0   WNW    4.2    5.9    4.2  1031.7  0.00   0.0   0.043   0.000   28.1    35   11.2   27.4   6.75 1.1783    118    1    100.0    5 
21/12/14   1:25    5.9    5.9    5.9    91    4.6   6.0   WNW   0.50   9.0   WNW    3.8    5.9    3.8  1031.6  0.00   0.0   0.043   0.000   28.0    35   11.1   27.3   6.75 1.1787    116    1    100.0    5 
21/12/14   1:30    5.9    5.9    5.9    91    4.6   5.0   WNW   0.42   8.0    NW    4.2    5.9    4.2  1031.6  0.00   0.0   0.043   0.000   28.0    35   11.1   27.3   6.75 1.1787    117    1    100.0    5 
21/12/14   1:35    6.0    6.0    5.9    91    4.6   5.0   WNW   0.42   7.0    NW    4.3    6.0    4.3  1031.5  0.00   0.0   0.043   0.000   27.9    35   11.1   27.2   6.76 1.1788    117    1    100.0    5 
21/12/14   1:40    6.2    6.2    6.0    91    4.8   5.0   WNW   0.42   9.0   WNW    4.5    6.2    4.5  1031.4  0.00   0.0   0.042   0.000   27.9    35   11.0   27.2   6.76 1.1789    117    1    100.0    5 
21/12/14   1:45    6.2    6.2    6.2    92    5.0   4.0   WNW   0.33   7.0   WNW    5.0    6.3    5.1  1031.6  0.00   0.0   0.042   0.000   27.8    35   11.0   27.1   6.77 1.1794    116    1    100.0    5 
21/12/14   1:50    6.3    6.3    6.2    91    4.9   3.0   WNW   0.25   6.0   WNW    5.6    6.3    5.6  1031.5  0.00   0.0   0.042   0.000   27.8    35   11.0   27.1   6.77 1.1794    116    1    100.0    5 
21/12/14   1:55    6.3    6.3    6.3    91    4.9   3.0   WNW   0.25   6.0     W    5.6    6.3    5.6  1031.3  0.00   0.0   0.042   0.000   27.8    35   10.9   27.1   6.77 1.1794    116    1    100.0    5 
21/12/14   2:00    6.3    6.3    6.3    91    5.0   3.0   WNW   0.25   7.0     W    5.7    6.4    5.7  1031.2  0.00   0.0   0.042   0.000   27.7    35   10.9   27.0   6.77 1.1796    116    1    100.0    5 
21/12/14   2:05    6.3    6.3    6.3    91    5.0   3.0    NW   0.25   5.0   WNW    5.7    6.4    5.7  1031.2  0.00   0.0   0.042   0.000   27.7    35   10.8   26.9   6.78 1.1798    116    1    100.0    5 
21/12/14   2:10    6.3    6.3    6.3    91    5.0   3.0    NW   0.25   5.0   WNW    5.7    6.4    5.7  1031.2  0.00   0.0   0.042   0.000   27.6    35   10.8   26.8   6.78 1.1801    116    1    100.0    5 
21/12/14   2:15    6.3    6.3    6.3    91    5.0   3.0    NW   0.25   4.0    NW    5.7    6.4    5.7  1031.2  0.00   0.0   0.042   0.000   27.6    35   10.8   26.8   6.78 1.1801    117    1    100.0    5 
21/12/14   2:20    6.3    6.3    6.3    91    5.0   3.0   NNW   0.25   5.0    NW    5.7    6.4    5.7  1031.1  0.00   0.0   0.042   0.000   27.6    35   10.7   26.8   6.79 1.1802    117    1    100.0    5 
21/12/14   2:25    6.3    6.3    6.3    91    5.0   2.0   NNW   0.17   3.0   NNW    6.3    6.4    6.4  1031.0  0.00   0.0   0.042   0.000   27.5    35   10.7   26.7   6.79 1.1803    118    1    100.0    5 
21/12/14   2:30    6.4    6.4    6.3    91    5.0   1.0   NNW   0.08   3.0   NNW    6.4    6.4    6.4  1030.8  0.00   0.0   0.041   0.000   27.4    35   10.6   26.7   6.79 1.1804    117    1    100.0    5 
21/12/14   2:35    6.4    6.4    6.4    91    5.1   2.0   NNW   0.17   3.0   NNW    6.4    6.5    6.5  1030.7  0.00   0.0   0.041   0.000   27.4    35   10.6   26.6   6.80 1.1805    116    1    100.0    5 
21/12/14   2:40    6.4    6.4    6.4    91    5.1   2.0   NNW   0.17   3.0   NNW    6.4    6.5    6.5  1030.6  0.00   0.0   0.041   0.000   27.4    35   10.6   26.6   6.80 1.1804    116    1    100.0    5 
21/12/14   2:45    6.4    6.4    6.4    91    5.1   2.0   NNW   0.17   3.0   NNW    6.4    6.5    6.5  1030.8  0.00   0.0   0.041   0.000   27.3    35   10.5   26.5   6.80 1.1809    114    1    100.0    5 
21/12/14   2:50    6.4    6.4    6.4    91    5.1   0.0   NNW   0.00   2.0   NNW    6.4    6.5    6.5  1030.9  0.00   0.0   0.041   0.000   27.3    35   10.5   26.4   6.81 1.1813    117    1    100.0    5 
21/12/14   2:55    6.4    6.4    6.4    91    5.1   0.0   NNW   0.00   1.0   NNW    6.4    6.5    6.5  1030.9  0.00   0.0   0.041   0.000   27.2    35   10.4   26.4   6.81 1.1815    117    1    100.0    5 
21/12/14   3:00    6.4    6.4    6.4    91    5.1   0.0   NNW   0.00   1.0   NNW    6.4    6.5    6.5  1030.7  0.00   0.0   0.041   0.000   27.2    35   10.4   26.4   6.81 1.1813    116    1    100.0    5 
21/12/14   3:05    6.4    6.4    6.4    91    5.1   0.0   ---   0.00   0.0   ---    6.4    6.5    6.5  1030.8  0.00   0.0   0.041   0.000   27.2    35   10.4   26.3   6.81 1.1817    117    1    100.0    5 
21/12/14   3:10    6.4    6.4    6.4    92    5.2   1.0   NNW   0.08   2.0   NNW    6.4    6.5    6.5  1030.7  0.00   0.0   0.041   0.000   27.1    35   10.3   26.3   6.82 1.1819    117    1    100.0    5 
21/12/14   3:15    6.4    6.4    6.4    91    5.1   0.0   NNW   0.00   1.0   NNW    6.4    6.5    6.5  1030.6  0.00   0.0   0.041   0.000   27.1    35   10.3   26.2   6.82 1.1820    117    1    100.0    5 
21/12/14   3:20    6.3    6.4    6.3    91    5.0   0.0   NNW   0.00   1.0   NNW    6.3    6.4    6.4  1030.5  0.00   0.0   0.042   0.000   27.1    35   10.3   26.2   6.82 1.1820    115    1    100.0    5 
21/12/14   3:25    6.3    6.3    6.3    91    5.0   1.0   NNW   0.08   2.0   NNW    6.3    6.4    6.4  1030.5  0.00   0.0   0.042   0.000   27.0    35   10.2   26.2   6.83 1.1822    117    1    100.0    5 
21/12/14   3:30    6.4    6.4    6.3    92    5.2   1.0   NNW   0.08   3.0   NNW    6.4    6.4    6.4  1030.4  0.00   0.0   0.041   0.000   26.9    35   10.2   26.1   6.83 1.1824    118    1    100.0    5 
21/12/14   3:35    6.4    6.4    6.4    92    5.2   2.0   NNW   0.17   3.0   NNW    6.4    6.4    6.4  1030.3  0.00   0.0   0.041   0.000   26.9    35   10.2   26.1   6.83 1.1823    116    1    100.0    5 
21/12/14   3:40    6.4    6.4    6.4    92    5.2   2.0   WNW   0.17   4.0   WNW    6.4    6.5    6.5  1030.4  0.00   0.0   0.041   0.000   26.9    35   10.1   26.1   6.83 1.1826    115    1    100.0    5 
21/12/14   3:45    6.5    6.5    6.4    92    5.3   2.0   WNW   0.17   4.0   WNW    6.5    6.6    6.6  1030.3  0.00   0.0   0.041   0.000   26.8    35   10.1   26.0   6.84 1.1828    117    1    100.0    5 
21/12/14   3:50    6.6    6.6    6.5    92    5.3   1.0   WNW   0.08   3.0   WNW    6.6    6.6    6.6  1030.2  0.00   0.0   0.041   0.000   26.8    35   10.1   26.0   6.84 1.1826    116    1    100.0    5 
21/12/14   3:55    6.6    6.6    6.6    92    5.4   0.0   WNW   0.00   1.0   WNW    6.6    6.7    6.7  1030.0  0.00   0.0   0.041   0.000   26.8    35   10.0   25.9   6.84 1.1827    116    1    100.0    5 
21/12/14   4:00    6.6    6.7    6.6    92    5.4   1.0   WNW   0.08   2.0   WNW    6.6    6.7    6.7  1029.9  0.00   0.0   0.041   0.000   26.7    35   10.0   25.9   6.85 1.1828    117    1    100.0    5 
21/12/14   4:05    6.7    6.7    6.6    92    5.5   1.0   WNW   0.08   3.0   WNW    6.7    6.7    6.7  1029.9  0.00   0.0   0.041   0.000   26.7    35    9.9   25.8   6.85 1.1831    117    1    100.0    5 
21/12/14   4:10    6.8    6.8    6.7    92    5.6   2.0   WNW   0.17   3.0   WNW    6.8    6.8    6.8  1029.9  0.00   0.0   0.040   0.000   26.7    35    9.9   25.8   6.85 1.1831    117    1    100.0    5 
21/12/14   4:15    6.8    6.8    6.7    92    5.6   1.0   WNW   0.08   3.0   WNW    6.8    6.9    6.9  1029.8  0.00   0.0   0.040   0.000   26.7    35    9.9   25.8   6.85 1.1830    117    1    100.0    5 
21/12/14   4:20    6.9    6.9    6.8    92    5.7   1.0   WNW   0.08   4.0     W    6.9    6.9    6.9  1029.7  0.00   0.0   0.040   0.000   26.6    35    9.9   25.8   6.85 1.1831    117    1    100.0    5 
21/12/14   4:25    7.0    7.1    6.9    92    5.8   2.0   WSW   0.17   5.0   WSW    7.0    7.1    7.1  1029.6  0.00   0.0   0.039   0.000   26.6    35    9.8   25.8   6.85 1.1833    115    1    100.0    5 
21/12/14   4:30    7.2    7.2    7.1    92    6.0   3.0   WSW   0.25   5.0     W    6.6    7.2    6.7  1029.6  0.00   0.0   0.039   0.000   26.5    35    9.8   25.7   6.86 1.1835    117    1    100.0    5 
21/12/14   4:35    7.3    7.3    7.2    92    6.1   4.0     W   0.33   7.0     W    6.3    7.4    6.3  1029.5  0.00   0.0   0.038   0.000   26.5    35    9.8   25.7   6.86 1.1835    117    1    100.0    5 
21/12/14   4:40    7.5    7.5    7.3    92    6.3   5.0     W   0.42   8.0   WNW    6.1    7.6    6.2  1029.6  0.00   0.0   0.038   0.000   26.4    35    9.7   25.7   6.86 1.1838    116    1    100.0    5 
21/12/14   4:45    7.8    7.8    7.6    92    6.6   6.0     W   0.50  11.0   WSW    6.1    7.9    6.2  1029.6  0.00   0.0   0.037   0.000   26.4    35    9.7   25.7   6.86 1.1838    117    1    100.0    5 
21/12/14   4:50    8.0    8.0    7.8    91    6.6   7.0     W   0.58  14.0     W    6.1    8.1    6.2  1029.6  0.00   0.0   0.036   0.000   26.4    35    9.7   25.7   6.86 1.1841    115    1    100.0    5 
21/12/14   4:55    8.1    8.1    8.0    91    6.7   6.0     W   0.50  10.0     W    6.4    8.2    6.5  1029.7  0.00   0.0   0.036   0.000   26.4    35    9.7   25.7   6.86 1.1842    117    1    100.0    5 
21/12/14   5:00    8.2    8.2    8.1    90    6.6   6.0     W   0.50  11.0     W    6.5    8.3    6.6  1029.6  0.00   0.0   0.035   0.000   26.3    35    9.6   25.6   6.86 1.1844    116    1    100.0    5 
21/12/14   5:05    8.2    8.2    8.2    90    6.7   6.0     W   0.50  10.0     W    6.6    8.3    6.7  1029.7  0.00   0.0   0.035   0.000   26.3    35    9.6   25.6   6.86 1.1847    117    1    100.0    5 
21/12/14   5:10    8.2    8.2    8.2    90    6.7   6.0     W   0.50  11.0     W    6.6    8.3    6.7  1029.6  0.00   0.0   0.035   0.000   26.3    35    9.6   25.6   6.86 1.1846    117    1    100.0    5 
21/12/14   5:15    8.3    8.3    8.2    89    6.6   8.0     W   0.67  12.0   WNW    6.0    8.4    6.1  1029.6  0.00   0.0   0.035   0.000   26.2    35    9.5   25.5   6.87 1.1849    117    1    100.0    5 
21/12/14   5:20    8.3    8.3    8.3    89    6.6   8.0     W   0.67  12.0   WNW    6.1    8.4    6.2  1029.7  0.00   0.0   0.035   0.000   26.2    35    9.5   25.5   6.87 1.1850    116    1    100.0    5 
21/12/14   5:25    8.4    8.4    8.3    89    6.7   7.0     W   0.58  10.0     W    6.5    8.5    6.6  1029.7  0.00   0.0   0.035   0.000   26.2    35    9.5   25.5   6.87 1.1852    117    1    100.0    5 
21/12/14   5:30    8.4    8.4    8.4    88    6.5   7.0     W   0.58  13.0   WSW    6.5    8.4    6.6  1029.6  0.00   0.0   0.035   0.000   26.1    35    9.4   25.4   6.87 1.1854    117    1    100.0    5 
21/12/14   5:35    8.4    8.4    8.4    88    6.5   6.0   WNW   0.50   9.0   WNW    6.8    8.4    6.8  1029.6  0.00   0.0   0.035   0.000   26.1    35    9.4   25.4   6.87 1.1854    118    1    100.0    5 
21/12/14   5:40    8.3    8.4    8.3    88    6.5   6.0     W   0.50  10.0     W    6.7    8.4    6.8  1029.6  0.00   0.0   0.035   0.000   26.1    35    9.4   25.4   6.87 1.1857    117    1    100.0    5 
21/12/14   5:45    8.3    8.3    8.3    88    6.5   5.0     W   0.42   9.0   WNW    7.1    8.4    7.1  1029.6  0.00   0.0   0.035   0.000   26.1    35    9.4   25.4   6.87 1.1857    117    1    100.0    5 
21/12/14   5:50    8.3    8.3    8.3    88    6.5   4.0   WNW   0.33   7.0   WNW    7.4    8.4    7.5  1029.5  0.00   0.0   0.035   0.000   26.0    35    9.3   25.3   6.87 1.1859    115    1    100.0    5 
21/12/14   5:55    8.3    8.3    8.3    88    6.4   4.0     W   0.33   7.0     W    7.4    8.3    7.4  1029.4  0.00   0.0   0.035   0.000   25.9    35    9.3   25.3   6.88 1.1860    117    1    100.0    5 
21/12/14   6:00    8.2    8.3    8.2    88    6.4   4.0     W   0.33   6.0     W    7.3    8.3    7.4  1029.2  0.00   0.0   0.035   0.000   25.9    35    9.3   25.2   6.88 1.1860    117    1    100.0    5 
21/12/14   6:05    8.2    8.2    8.2    88    6.3   4.0     W   0.33   6.0     W    7.2    8.2    7.3  1029.2  0.00   0.0   0.035   0.000   25.9    36    9.7   25.2   6.98 1.1856    116    1    100.0    5 
21/12/14   6:10    8.1    8.2    8.1    88    6.2   4.0     W   0.33   6.0     W    7.2    8.2    7.2  1029.3  0.00   0.0   0.035   0.000   25.8    36    9.6   25.2   6.98 1.1859    117    1    100.0    5 
21/12/14   6:15    8.1    8.2    8.1    88    6.2   4.0     W   0.33   7.0     W    7.2    8.2    7.2  1029.2  0.00   0.0   0.035   0.000   25.8    36    9.6   25.1   6.98 1.1861    116    1    100.0    5 
21/12/14   6:20    8.2    8.2    8.1    88    6.3   5.0     W   0.42   8.0     W    6.8    8.2    6.9  1029.2  0.00   0.0   0.035   0.000   25.8    36    9.6   25.1   6.98 1.1861    117    1    100.0    5 
21/12/14   6:25    8.2    8.2    8.2    88    6.4   6.0     W   0.50   8.0     W    6.6    8.3    6.7  1029.2  0.00   0.0   0.035   0.000   25.7    36    9.5   25.1   6.98 1.1864    116    1    100.0    5 
21/12/14   6:30    8.3    8.3    8.2    88    6.4   6.0     W   0.50  11.0   WNW    6.7    8.3    6.7  1029.2  0.00   0.0   0.035   0.000   25.7    36    9.5   25.0   6.99 1.1867    117    1    100.0    5 
21/12/14   6:35    8.3    8.3    8.3    88    6.5   5.0     W   0.42   8.0     W    7.1    8.4    7.1  1029.3  0.00   0.0   0.035   0.000   25.7    36    9.5   25.0   6.99 1.1868    117    1    100.0    5 
21/12/14   6:40    8.4    8.4    8.3    88    6.5   7.0     W   0.58  13.0     W    6.5    8.4    6.6  1029.2  0.00   0.0   0.035   0.000   25.7    36    9.5   25.0   6.99 1.1867    118    1    100.0    5 
21/12/14   6:45    8.6    8.6    8.4    89    6.8  10.0   WSW   0.83  15.0     W    5.7    8.7    5.8  1029.2  0.00   0.0   0.034   0.000   25.6    36    9.4   24.9   6.99 1.1869    116    1    100.0    5 
21/12/14   6:50    8.6    8.6    8.6    89    6.8  10.0     W   0.83  16.0   WSW    5.7    8.7    5.8  1029.1  0.00   0.0   0.034   0.000   25.6    36    9.4   24.9   6.99 1.1870    117    1    100.0    5 
21/12/14   6:55    8.6    8.6    8.6    89    6.8  10.0     W   0.83  15.0     W    5.7    8.7    5.8  1029.0  0.00   0.0   0.034   0.000   25.6    36    9.4   24.9   6.99 1.1870    117    1    100.0    5 
21/12/14   7:00    8.6    8.6    8.6    89    6.8   6.0     W   0.50  10.0     W    7.0    8.7    7.1  1029.1  0.00   0.0   0.034   0.000   25.5    36    9.3   24.8   6.99 1.1873    115    1    100.0    5 
21/12/14   7:05    8.6    8.6    8.5    90    7.0  10.0   WSW   0.83  15.0   WSW    5.7    8.7    5.8  1029.0  0.00   0.0   0.034   0.000   25.5    36    9.3   24.8   6.99 1.1872    117    1    100.0    5 
21/12/14   7:10    8.6    8.6    8.5    91    7.2  13.0   WSW   1.08  16.0   WSW    4.9    8.7    5.1  1029.0  0.00   0.0   0.034   0.000   25.4    36    9.3   24.8   6.99 1.1875    117    1    100.0    5 
21/12/14   7:15    8.5    8.6    8.5    91    7.1  13.0   WSW   1.08  16.0   WSW    4.9    8.6    5.0  1028.9  0.00   0.0   0.034   0.000   25.4    36    9.3   24.8   6.99 1.1873    117    1    100.0    5 
21/12/14   7:20    8.6    8.6    8.5    91    7.2  13.0   WSW   1.08  18.0   WSW    4.9    8.7    5.1  1028.9  0.00   0.0   0.034   0.000   25.4    36    9.3   24.8   6.99 1.1873    117    1    100.0    5 
21/12/14   7:25    8.6    8.6    8.6    91    7.2  12.0   WSW   1.00  17.0     W    5.2    8.7    5.3  1028.9  0.00   0.0   0.034   0.000   25.4    36    9.3   24.8   6.99 1.1874    117    1    100.0    5 
21/12/14   7:30    8.6    8.6    8.6    91    7.2  10.0     W   0.83  16.0   WSW    5.8    8.7    5.9  1028.8  0.00   0.0   0.034   0.000   25.4    37    9.6   24.8   7.20 1.1872    116    1    100.0    5 
21/12/14   7:35    8.6    8.6    8.6    90    7.0  11.0     W   0.92  17.0     W    5.4    8.7    5.6  1029.0  0.00   0.0   0.034   0.000   25.4    37    9.6   24.8   7.20 1.1873    116    1    100.0    5 
21/12/14   7:40    8.6    8.6    8.6    90    7.1  10.0     W   0.83  16.0     W    5.8    8.7    5.9  1029.1  0.00   0.0   0.034   0.000   25.4    37    9.6   24.8   7.20 1.1875    117    1    100.0    5 
21/12/14   7:45    8.6    8.6    8.6    90    7.1  10.0     W   0.83  15.0     W    5.8    8.7    5.9  1029.2  0.00   0.0   0.034   0.000   25.4    37    9.6   24.8   7.20 1.1876    117    1    100.0    5 
21/12/14   7:50    8.6    8.6    8.6    90    7.0   9.0     W   0.75  15.0     W    6.0    8.7    6.1  1029.2  0.00   0.0   0.034   0.000   25.4    37    9.7   24.8   7.19 1.1874    117    1    100.0    5 
21/12/14   7:55    8.4    8.5    8.4    89    6.7  10.0     W   0.83  15.0   WSW    5.6    8.6    5.7  1029.2  0.00   0.0   0.034   0.000   25.4    37    9.6   24.8   7.20 1.1876    117    1    100.0    5 
21/12/14   8:00    8.4    8.4    8.4    89    6.7  11.0     W   0.92  18.0     W    5.3    8.6    5.4  1029.0  0.00   0.0   0.034   0.000   25.4    37    9.7   24.8   7.19 1.1872    117    1    100.0    5 
21/12/14   8:05    8.4    8.4    8.4    89    6.7  11.0     W   0.92  18.0     W    5.2    8.5    5.3  1029.0  0.00   0.0   0.035   0.000   25.5    38   10.1   24.9   7.29 1.1865    117    1    100.0    5 
21/12/14   8:10    8.4    8.4    8.4    89    6.7  11.0     W   0.92  16.0     W    5.3    8.6    5.4  1029.0  0.00   0.0   0.034   0.000   25.5    38   10.1   24.9   7.29 1.1865    117    1    100.0    5 
21/12/14   8:15    8.4    8.4    8.4    89    6.7  14.0     W   1.17  25.0     W    4.6    8.6    4.7  1029.0  0.00   0.0   0.034   0.000   25.5    38   10.1   24.9   7.29 1.1865    115    1    100.0    5 
21/12/14   8:20    8.4    8.4    8.4    90    6.8   9.0     W   0.75  19.0     W    5.8    8.5    5.9  1029.1  0.00   0.0   0.035   0.000   25.5    38   10.1   24.9   7.29 1.1865    117    1    100.0    5 
21/12/14   8:25    8.3    8.4    8.3    90    6.8  10.0     W   0.83  16.0     W    5.4    8.4    5.6  1029.1  0.00   0.0   0.035   0.000   25.6    38   10.2   24.9   7.29 1.1863    117    1    100.0    5 
21/12/14   8:30    8.3    8.3    8.2    91    6.9  12.0     W   1.00  18.0     W    4.9    8.4    5.0  1029.1  0.00   0.0   0.035   0.000   25.6    38   10.2   25.0   7.29 1.1861    117    1    100.0    5 
21/12/14   8:35    8.2    8.3    8.2    91    6.8  11.0     W   0.92  16.0     W    5.1    8.3    5.2  1029.3  0.00   0.0   0.035   0.000   25.7    39   10.7   25.1   7.49 1.1856    117    1    100.0    5 
21/12/14   8:40    8.2    8.2    8.2    92    6.9   8.0     W   0.67  13.0     W    5.9    8.3    6.0  1029.2  0.00   0.0   0.035   0.000   25.7    39   10.7   25.2   7.48 1.1853    117    1    100.0    5 
21/12/14   8:45    8.1    8.2    8.1    92    6.8  10.0     W   0.83  15.0     W    5.1    8.2    5.2  1029.2  0.00   0.0   0.036   0.000   25.8    39   10.8   25.3   7.48 1.1849    117    1    100.0    5 
21/12/14   8:50    7.9    8.1    7.9    92    6.7  10.0     W   0.83  16.0   WNW    5.0    8.1    5.1  1029.2  0.00   0.0   0.036   0.000   25.8    39   10.8   25.3   7.48 1.1849    118    1    100.0    5 
21/12/14   8:55    7.9    7.9    7.9    92    6.7  10.0     W   0.83  16.0     W    4.9    8.0    5.0  1029.0  0.00   0.0   0.036   0.000   25.8    39   10.8   25.3   7.48 1.1844    117    1    100.0    5 
21/12/14   9:00    7.9    7.9    7.9    92    6.7   8.0     W   0.67  14.0   WSW    5.6    8.0    5.7  1029.0  0.00   0.0   0.036   0.000   25.9    39   10.9   25.4   7.48 1.1842    116    1    100.0    5 
21/12/14   9:05    7.9    7.9    7.9    92    6.7   8.0     W   0.67  13.0     W    5.6    8.0    5.7  1028.8  0.00   0.0   0.036   0.000   25.9    39   10.9   25.4   7.48 1.1837    116    1    100.0    5 
21/12/14   9:10    7.9    7.9    7.9    92    6.7   9.0     W   0.75  16.0     W    5.3    8.1    5.4  1028.8  0.00   0.0   0.036   0.000   25.9    39   10.9   25.4   7.48 1.1837    117    1    100.0    5 
21/12/14   9:15    8.0    8.0    7.9    91    6.6  10.0     W   0.83  18.0     W    5.1    8.1    5.2  1028.7  0.00   0.0   0.036   0.000   26.1    39   11.0   25.6   7.47 1.1830    115    1    100.0    5 
21/12/14   9:20    8.1    8.1    8.0    91    6.7   8.0     W   0.67  13.0   WSW    5.8    8.2    5.9  1028.8  0.00   0.0   0.035   0.000   26.1    39   11.1   25.6   7.47 1.1829    117    1    100.0    5 
21/12/14   9:25    8.3    8.3    8.1    91    6.9   9.0     W   0.75  18.0     W    5.7    8.4    5.8  1028.8  0.00   0.0   0.035   0.000   26.1    39   11.1   25.6   7.47 1.1829    117    1    100.0    5 
21/12/14   9:30    8.5    8.5    8.3    91    7.1  11.0   WSW   0.92  18.0   WSW    5.4    8.6    5.5  1028.8  0.00   0.0   0.034   0.000   26.2    39   11.2   25.7   7.47 1.1823    116    1    100.0    5 
21/12/14   9:35    8.7    8.7    8.5    91    7.3  14.0   WSW   1.17  20.0   WSW    4.9    8.8    5.0  1028.7  0.00   0.0   0.034   0.000   26.3    39   11.3   25.8   7.46 1.1817    117    1    100.0    5 
21/12/14   9:40    8.8    8.8    8.7    91    7.4  14.0   WSW   1.17  20.0   WSW    5.1    8.9    5.2  1028.8  0.00   0.0   0.033   0.000   26.4    39   11.3   25.8   7.46 1.1815    115    1    100.0    5 
21/12/14   9:45    8.9    8.9    8.8    91    7.5  14.0   WSW   1.17  22.0   WSW    5.1    9.0    5.2  1028.8  0.00   0.0   0.033   0.000   26.4    39   11.4   25.9   7.46 1.1812    116    1    100.0    5 
21/12/14   9:50    8.9    8.9    8.9    91    7.6  15.0   WSW   1.25  21.0   WSW    5.0    9.1    5.1  1028.8  0.00   0.0   0.033   0.000   26.5    39   11.4   25.9   7.46 1.1810    117    1    100.0    5 
21/12/14   9:55    8.9    8.9    8.9    91    7.6  16.0   WSW   1.33  21.0   WSW    4.8    9.1    4.9  1028.8  0.00   0.0   0.033   0.000   26.6    38   11.1   25.9   7.25 1.1811    118    1    100.0    5 
21/12/14  10:00    8.9    8.9    8.9    91    7.6  14.0   WSW   1.17  18.0   WSW    5.2    9.1    5.3  1028.9  0.00   0.0   0.033   0.000   26.7    38   11.2   26.0   7.25 1.1807    117    1    100.0    5 
21/12/14  10:05    8.9    8.9    8.9    92    7.7  15.0   WSW   1.25  21.0   WSW    5.0    9.1    5.2  1028.9  0.00   0.0   0.033   0.000   26.7    39   11.6   26.1   7.45 1.1800    116    1    100.0    5 
21/12/14  10:10    8.9    8.9    8.9    92    7.7  13.0   WSW   1.08  19.0   WSW    5.4    9.1    5.6  1028.8  0.00   0.0   0.033   0.000   26.8    39   11.7   26.2   7.45 1.1797    117    1    100.0    5 
21/12/14  10:15    8.9    8.9    8.9    93    7.8  14.0   WSW   1.17  20.0   WSW    5.1    9.1    5.3  1029.0  0.00   0.0   0.033   0.000   26.8    39   11.7   26.2   7.44 1.1796    117    1    100.0    5 
21/12/14  10:20    8.9    8.9    8.8    93    7.8  15.0   WSW   1.25  20.0   WSW    4.9    9.1    5.1  1028.9  0.00   0.0   0.033   0.000   26.9    38   11.4   26.2   7.25 1.1796    117    1    100.0    5 
21/12/14  10:25    8.8    8.9    8.8    94    7.9  15.0   WSW   1.25  19.0   WSW    4.9    9.1    5.1  1028.9  0.00   0.0   0.033   0.000   26.9    38   11.4   26.3   7.25 1.1794    117    1    100.0    5 
21/12/14  10:30    8.8    8.9    8.8    94    7.9  15.0   WSW   1.25  21.0   WSW    4.8    8.9    5.0  1028.8  0.00   0.0   0.033   0.000   27.0    38   11.5   26.3   7.25 1.1790    117    1    100.0    5 
21/12/14  10:35    8.9    8.9    8.8    94    8.0  14.0   WSW   1.17  19.0   WSW    5.1    9.1    5.3  1028.8  0.00   0.0   0.033   0.000   27.1    38   11.6   26.4   7.25 1.1784    117    1    100.0    5 
21/12/14  10:40    8.9    8.9    8.9    94    8.0  15.0   WSW   1.25  19.0     W    4.9    9.1    5.2  1028.7  0.00   0.0   0.033   0.000   27.2    38   11.6   26.5   7.25 1.1780    116    1    100.0    5 
21/12/14  10:45    8.9    8.9    8.9    94    8.0  13.0   WSW   1.08  20.0   WSW    5.3    9.1    5.6  1028.7  0.00   0.0   0.033   0.000   27.2    38   11.7   26.6   7.25 1.1778    117    1    100.0    5 
21/12/14  10:50    8.9    8.9    8.8    94    8.0  12.0   WSW   1.00  18.0    SW    5.6    9.1    5.8  1028.7  0.00   0.0   0.033   0.000   27.3    38   11.7   26.6   7.25 1.1775    116    1    100.0    5 
21/12/14  10:55    8.8    8.9    8.8    94    7.9  14.0   WSW   1.17  19.0     W    5.0    8.9    5.2  1028.7  0.00   0.0   0.033   0.000   27.3    38   11.8   26.7   7.25 1.1773    118    1    100.0    5 
21/12/14  11:00    8.7    8.8    8.7    93    7.6  13.0     W   1.08  22.0   WSW    5.1    8.8    5.3  1028.7  0.00   0.0   0.034   0.000   27.4    38   11.8   26.8   7.25 1.1769    116    1    100.0    5 
21/12/14  11:05    8.7    8.7    8.7    94    7.8  13.0     W   1.08  21.0   WSW    5.2    8.9    5.3  1028.5  0.00   0.0   0.033   0.000   27.4    38   11.9   26.8   7.25 1.1765    114    1    100.0    5 
21/12/14  11:10    8.8    8.8    8.7    94    7.9  12.0     W   1.00  17.0     W    5.5    9.1    5.7  1028.6  0.00   0.0   0.033   0.000   27.4    38   11.9   26.8   7.25 1.1765    116    1    100.0    5 
21/12/14  11:15    8.9    8.9    8.8    93    7.9  12.0     W   1.00  20.0   WNW    5.6    9.1    5.8  1028.5  0.00   0.0   0.033   0.000   27.5    38   11.9   26.9   7.25 1.1762    116    1    100.0    5 
21/12/14  11:20    8.9    8.9    8.9    93    7.9  12.0     W   1.00  18.0   WSW    5.6    9.1    5.8  1028.5  0.00   0.0   0.033   0.000   27.6    38   12.0   27.0   7.25 1.1760    117    1    100.0    5 
21/12/14  11:25    9.0    9.0    8.9    93    7.9  11.0     W   0.92  17.0   WSW    5.9    9.2    6.1  1028.4  0.00   0.0   0.032   0.000   27.6    38   12.0   27.0   7.25 1.1759    117    1    100.0    5 
21/12/14  11:30    9.0    9.1    9.0    92    7.8  13.0   WSW   1.08  20.0   WSW    5.4    9.2    5.6  1028.5  0.00   0.0   0.032   0.000   27.6    37   11.6   27.0   7.12 1.1761    117    1    100.0    5 
21/12/14  11:35    9.1    9.1    9.0    92    7.8  15.0   WSW   1.25  21.0   WSW    5.2    9.2    5.3  1028.4  0.00   0.0   0.032   0.000   27.6    37   11.6   27.0   7.12 1.1760    117    1    100.0    5 
21/12/14  11:40    9.0    9.1    9.0    92    7.8  17.0   WSW   1.42  24.0   WSW    4.7    9.2    4.9  1028.4  0.00   0.0   0.032   0.000   27.6    37   11.6   27.0   7.12 1.1760    117    1    100.0    5 
21/12/14  11:45    8.9    9.0    8.9    93    7.9  17.0   WSW   1.42  24.0   WSW    4.7    9.1    4.8  1028.4  0.00   0.0   0.033   0.000   27.6    37   11.6   27.0   7.12 1.1760    117    1    100.0    5 
21/12/14  11:50    9.0    9.0    8.9    93    7.9  13.0     W   1.08  20.0     W    5.4    9.2    5.6  1028.3  0.00   0.0   0.032   0.000   27.6    37   11.6   27.0   7.12 1.1758    117    1    100.0    5 
21/12/14  11:55    9.1    9.1    9.0    93    8.0  10.0     W   0.83  17.0     W    6.3    9.2    6.4  1028.2  0.00   0.0   0.032   0.000   27.6    37   11.6   27.0   7.12 1.1758    117    1    100.0    5 
21/12/14  12:00    9.1    9.1    9.1    93    8.0  10.0     W   0.83  16.0     W    6.3    9.2    6.4  1028.1  0.00   0.0   0.032   0.000   27.6    37   11.6   27.0   7.12 1.1757    117    1    100.0    5 
21/12/14  12:05    9.1    9.1    9.1    93    8.0  10.0     W   0.83  15.0     W    6.3    9.3    6.6  1027.9  0.00   0.0   0.032   0.000   27.6    37   11.6   27.0   7.12 1.1755    117    1    100.0    5 
21/12/14  12:10    9.2    9.2    9.1    93    8.1  16.0   WSW   1.33  21.0   WSW    5.2    9.4    5.4  1027.8  0.00   0.0   0.032   0.000   27.6    37   11.6   27.0   7.12 1.1753    116    1    100.0    5 
21/12/14  12:15    9.3    9.3    9.2    92    8.1  15.0   WSW   1.25  20.0   WSW    5.5    9.6    5.7  1027.7  0.00   0.0   0.031   0.000   27.6    37   11.6   27.0   7.12 1.1752    117    1    100.0    5 
21/12/14  12:20    9.4    9.4    9.3    92    8.2  14.0   WSW   1.17  19.0   WSW    5.7    9.6    5.9  1027.7  0.00   0.0   0.031   0.000   27.6    37   11.6   27.0   7.12 1.1751    117    1    100.0    5 
21/12/14  12:25    9.4    9.4    9.3    91    8.0  16.0   WSW   1.33  23.0   WSW    5.4    9.6    5.6  1027.6  0.00   0.0   0.031   0.000   27.6    37   11.6   27.0   7.12 1.1751    116    1    100.0    5 
21/12/14  12:30    9.6    9.6    9.4    91    8.2  15.0   WSW   1.25  22.0   WSW    5.7    9.7    5.9  1027.7  0.00   0.0   0.030   0.000   27.6    37   11.6   27.0   7.12 1.1751    117    1    100.0    5 
21/12/14  12:35    9.6    9.6    9.6    91    8.2  17.0   WSW   1.42  23.0   WSW    5.4    9.8    5.6  1027.5  0.00   0.0   0.030   0.000   27.6    37   11.6   26.9   7.12 1.1752    116    1    100.0    5 
21/12/14  12:40    9.7    9.7    9.6    91    8.3  16.0   WSW   1.33  22.0   WSW    5.7    9.8    5.8  1027.5  0.00   0.0   0.030   0.000   27.6    37   11.6   26.9   7.12 1.1752    117    1    100.0    5 
21/12/14  12:45    9.7    9.7    9.7    90    8.2  15.0     W   1.25  21.0     W    5.9    9.9    6.1  1027.5  0.00   0.0   0.030   0.000   27.6    37   11.6   26.9   7.12 1.1752    117    1    100.0    5 
21/12/14  12:50    9.8    9.8    9.7    90    8.2  12.0     W   1.00  17.0     W    6.6    9.9    6.8  1027.4  0.00   0.0   0.030   0.000   27.5    37   11.5   26.8   7.12 1.1754    115    1    100.0    5 
21/12/14  12:55    9.7    9.8    9.7    90    8.2  10.0     W   0.83  18.0     W    7.1    9.9    7.2  1027.4  0.00   0.0   0.030   0.000   27.5    37   11.5   26.8   7.12 1.1753    116    1    100.0    5 
21/12/14  13:00    9.7    9.7    9.7    90    8.2   9.0     W   0.75  14.0   WSW    7.4    9.9    7.6  1027.3  0.00   0.0   0.030   0.000   27.4    37   11.5   26.8   7.12 1.1755    117    1    100.0    5 
21/12/14  13:05    9.6    9.7    9.6    90    8.0  13.0     W   1.08  20.0     W    6.1    9.7    6.2  1027.2  0.00   0.0   0.030   0.000   27.4    36   11.0   26.7   6.89 1.1758    118    1    100.0    5 
21/12/14  13:10    9.5    9.6    9.5    90    7.9  12.0     W   1.00  18.0     W    6.3    9.7    6.4  1027.1  0.00   0.0   0.031   0.000   27.4    37   11.4   26.7   7.12 1.1755    116    1    100.0    5 
21/12/14  13:15    9.5    9.5    9.5    91    8.1  13.0     W   1.08  23.0     W    6.0    9.7    6.2  1027.2  0.00   0.0   0.031   0.000   27.4    38   11.9   26.8   7.25 1.1749    116    1    100.0    5 
21/12/14  13:20    9.4    9.5    9.4    91    8.0  11.0     W   0.92  19.0     W    6.4    9.6    6.6  1027.1  0.00   0.0   0.031   0.000   27.4    39   12.2   26.8   7.42 1.1747    116    1    100.0    5 
21/12/14  13:25    9.4    9.4    9.4    91    8.0  10.0     W   0.83  16.0     W    6.7    9.6    6.8  1027.0  0.00   0.0   0.031   0.000   27.4    41   13.0   27.0   7.72 1.1735    116    1    100.0    5 
21/12/14  13:30    9.4    9.4    9.4    91    8.0  10.0     W   0.83  18.0   WSW    6.7    9.6    6.8  1027.0  0.00   0.0   0.031   0.000   27.4    41   13.0   26.9   7.72 1.1738    116    1    100.0    5 
21/12/14  13:35    9.3    9.4    9.3    92    8.1  13.0     W   1.08  20.0   WSW    5.8    9.6    6.1  1027.0  0.00   0.0   0.031   0.000   27.4    40   12.6   26.9   7.55 1.1741    117    1    100.0    5 
21/12/14  13:40    9.3    9.3    9.3    92    8.0  12.0     W   1.00  20.0   WSW    6.0    9.5    6.2  1026.9  0.00   0.0   0.031   0.000   27.4    39   12.2   26.8   7.42 1.1745    117    1    100.0    5 
21/12/14  13:45    9.2    9.3    9.2    92    8.0  13.0     W   1.08  19.0   WSW    5.7    9.4    5.9  1026.8  0.00   0.0   0.032   0.000   27.3    39   12.2   26.8   7.43 1.1747    117    1    100.0    5 
21/12/14  13:50    9.2    9.3    9.2    93    8.1  12.0     W   1.00  17.0   WSW    5.9    9.4    6.2  1026.7  0.00   0.0   0.032   0.000   27.3    38   11.8   26.7   7.25 1.1749    117    1    100.0    5 
21/12/14  13:55    9.2    9.3    9.2    93    8.1  14.0     W   1.17  19.0     W    5.5    9.4    5.7  1026.7  0.00   0.0   0.032   0.000   27.3    38   11.7   26.6   7.25 1.1752    115    1    100.0    5 
21/12/14  14:00    9.2    9.2    9.2    93    8.1  11.0     W   0.92  17.0     W    6.2    9.4    6.4  1026.5  0.00   0.0   0.032   0.000   27.3    38   11.7   26.6   7.25 1.1749    117    1    100.0    5 
21/12/14  14:05    9.2    9.2    9.2    93    8.1  11.0   WSW   0.92  17.0     W    6.2    9.4    6.4  1026.3  0.00   0.0   0.032   0.000   27.3    37   11.3   26.6   7.13 1.1751    116    1    100.0    5 
21/12/14  14:10    9.2    9.2    9.2    94    8.3  11.0   WSW   0.92  17.0   WSW    6.2    9.4    6.4  1026.2  0.00   0.0   0.032   0.000   27.2    37   11.3   26.5   7.13 1.1753    118    1    100.0    5 
21/12/14  14:15    9.3    9.3    9.2    94    8.4  13.0   WSW   1.08  18.0   WSW    5.8    9.5    6.0  1026.3  0.00   0.0   0.031   0.000   27.2    37   11.3   26.5   7.13 1.1754    116    1    100.0    5 
21/12/14  14:20    9.3    9.3    9.3    93    8.3  15.0   WSW   1.25  24.0   WSW    5.5    9.6    5.7  1026.2  0.00   0.0   0.031   0.000   27.2    37   11.2   26.4   7.13 1.1756    116    1    100.0    5 
21/12/14  14:25    9.4    9.4    9.3    93    8.4  14.0   WSW   1.17  22.0   WSW    5.8    9.7    6.0  1026.1  0.00   0.0   0.031   0.000   27.1    37   11.2   26.4   7.13 1.1757    117    1    100.0    5 
21/12/14  14:30    9.6    9.6    9.4    93    8.5  14.0     W   1.17  23.0     W    5.9    9.8    6.1  1026.1  0.00   0.0   0.030   0.000   27.1    37   11.2   26.4   7.13 1.1757    117    1    100.0    5 
21/12/14  14:35    9.6    9.6    9.6    93    8.5  15.0   WSW   1.25  20.0   WSW    5.8    9.8    6.0  1026.0  0.00   0.0   0.030   0.000   27.1    37   11.1   26.3   7.14 1.1759    117    1    100.0    5 
21/12/14  14:40    9.7    9.7    9.6    93    8.6  14.0   WSW   1.17  23.0     W    6.0    9.9    6.2  1026.1  0.00   0.0   0.030   0.000   27.0    36   10.7   26.2   6.93 1.1767    116    1    100.0    5 
21/12/14  14:45    9.6    9.7    9.6    93    8.5  15.0   WSW   1.25  23.0   WSW    5.8    9.8    6.0  1025.9  0.00   0.0   0.030   0.000   27.0    36   10.7   26.2   6.93 1.1765    117    1    100.0    5 
21/12/14  14:50    9.6    9.6    9.6    93    8.5  16.0   WSW   1.33  22.0     W    5.5    9.8    5.7  1025.9  0.00   0.0   0.030   0.000   26.9    36   10.6   26.2   6.93 1.1767    117    1    100.0    5 
21/12/14  14:55    9.6    9.6    9.6    93    8.5  14.0   WSW   1.17  21.0   WSW    5.9    9.8    6.1  1025.9  0.00   0.0   0.030   0.000   26.9    36   10.6   26.1   6.93 1.1770    117    1    100.0    5 
21/12/14  15:00    9.6    9.6    9.6    93    8.5  16.0   WSW   1.33  21.0   WSW    5.5    9.8    5.7  1025.9  0.00   0.0   0.030   0.000   26.9    36   10.6   26.1   6.93 1.1770    117    1    100.0    5 
97028